<?xml version="1.0" encoding="UTF-8" standalone="no" ?>
<gpx xmlns="http://www.topografix.com/GPX/1/1" xmlns:xsi="http://www.w3.org/2001/XMLSchema-instance" xsi:schemaLocation="http://www.topografix.com/GPX/1/1 http://www.topografix.com/GPX/1/1/gpx.xsd" version="1.1" creator="VisuGPX - https://www.visugpx.com">
  <metadata>
    <name>Ailefroide et barre des écrins</name>
  </metadata>
  <trk>
    <name><![CDATA[Ecrins J3 25.07.20]]></name>
    <trkseg>
      <trkpt lat="44.93789" lon="6.41145">
        <ele>2554.84</ele>
        <time>2020-07-25T01:34:09Z</time>
      </trkpt>
      <trkpt lat="44.93789" lon="6.41146">
        <ele>2554.84</ele>
        <time>2020-07-25T01:34:10Z</time>
      </trkpt>
      <trkpt lat="44.93808" lon="6.41144">
        <ele>2559.17</ele>
        <time>2020-07-25T01:34:44Z</time>
      </trkpt>
      <trkpt lat="44.93819" lon="6.41137">
        <ele>2564.45</ele>
        <time>2020-07-25T01:35:19Z</time>
      </trkpt>
      <trkpt lat="44.93833" lon="6.41135">
        <ele>2568.78</ele>
        <time>2020-07-25T01:35:53Z</time>
      </trkpt>
      <trkpt lat="44.93861" lon="6.41138">
        <ele>2568.78</ele>
        <time>2020-07-25T01:36:31Z</time>
      </trkpt>
      <trkpt lat="44.93872" lon="6.4111">
        <ele>2572.63</ele>
        <time>2020-07-25T01:37:08Z</time>
      </trkpt>
      <trkpt lat="44.93879" lon="6.41101">
        <ele>2577.43</ele>
        <time>2020-07-25T01:37:40Z</time>
      </trkpt>
      <trkpt lat="44.93883" lon="6.41078">
        <ele>2582.72</ele>
        <time>2020-07-25T01:38:16Z</time>
      </trkpt>
      <trkpt lat="44.93891" lon="6.41081">
        <ele>2587.53</ele>
        <time>2020-07-25T01:38:49Z</time>
      </trkpt>
      <trkpt lat="44.93899" lon="6.41092">
        <ele>2592.81</ele>
        <time>2020-07-25T01:39:24Z</time>
      </trkpt>
      <trkpt lat="44.93906" lon="6.41091">
        <ele>2597.14</ele>
        <time>2020-07-25T01:39:47Z</time>
      </trkpt>
      <trkpt lat="44.93919" lon="6.41089">
        <ele>2601.46</ele>
        <time>2020-07-25T01:40:18Z</time>
      </trkpt>
      <trkpt lat="44.93926" lon="6.41085">
        <ele>2607.71</ele>
        <time>2020-07-25T01:40:50Z</time>
      </trkpt>
      <trkpt lat="44.9393" lon="6.41089">
        <ele>2611.56</ele>
        <time>2020-07-25T01:41:04Z</time>
      </trkpt>
      <trkpt lat="44.93942" lon="6.41098">
        <ele>2616.85</ele>
        <time>2020-07-25T01:41:58Z</time>
      </trkpt>
      <trkpt lat="44.93949" lon="6.41096">
        <ele>2620.21</ele>
        <time>2020-07-25T01:42:15Z</time>
      </trkpt>
      <trkpt lat="44.93956" lon="6.41102">
        <ele>2625.5</ele>
        <time>2020-07-25T01:42:45Z</time>
      </trkpt>
      <trkpt lat="44.93966" lon="6.4109">
        <ele>2630.3</ele>
        <time>2020-07-25T01:43:21Z</time>
      </trkpt>
      <trkpt lat="44.93979" lon="6.41085">
        <ele>2635.11</ele>
        <time>2020-07-25T01:43:55Z</time>
      </trkpt>
      <trkpt lat="44.9399" lon="6.41075">
        <ele>2640.88</ele>
        <time>2020-07-25T01:44:33Z</time>
      </trkpt>
      <trkpt lat="44.93995" lon="6.41072">
        <ele>2644.24</ele>
        <time>2020-07-25T01:44:48Z</time>
      </trkpt>
      <trkpt lat="44.94004" lon="6.41076">
        <ele>2650.01</ele>
        <time>2020-07-25T01:45:18Z</time>
      </trkpt>
      <trkpt lat="44.9402" lon="6.41068">
        <ele>2654.34</ele>
        <time>2020-07-25T01:46:01Z</time>
      </trkpt>
      <trkpt lat="44.94042" lon="6.41041">
        <ele>2658.18</ele>
        <time>2020-07-25T01:46:52Z</time>
      </trkpt>
      <trkpt lat="44.94052" lon="6.4103">
        <ele>2663.47</ele>
        <time>2020-07-25T01:47:24Z</time>
      </trkpt>
      <trkpt lat="44.94068" lon="6.41003">
        <ele>2667.31</ele>
        <time>2020-07-25T01:48:02Z</time>
      </trkpt>
      <trkpt lat="44.94087" lon="6.40993">
        <ele>2672.6</ele>
        <time>2020-07-25T01:48:38Z</time>
      </trkpt>
      <trkpt lat="44.941" lon="6.40976">
        <ele>2677.89</ele>
        <time>2020-07-25T01:49:13Z</time>
      </trkpt>
      <trkpt lat="44.94108" lon="6.40972">
        <ele>2681.73</ele>
        <time>2020-07-25T01:49:34Z</time>
      </trkpt>
      <trkpt lat="44.94118" lon="6.40957">
        <ele>2687.02</ele>
        <time>2020-07-25T01:50:09Z</time>
      </trkpt>
      <trkpt lat="44.94124" lon="6.40938">
        <ele>2691.83</ele>
        <time>2020-07-25T01:50:41Z</time>
      </trkpt>
      <trkpt lat="44.94135" lon="6.40924">
        <ele>2698.08</ele>
        <time>2020-07-25T01:51:12Z</time>
      </trkpt>
      <trkpt lat="44.94141" lon="6.40914">
        <ele>2698.08</ele>
        <time>2020-07-25T01:51:30Z</time>
      </trkpt>
      <trkpt lat="44.94155" lon="6.409">
        <ele>2701.92</ele>
        <time>2020-07-25T01:52:05Z</time>
      </trkpt>
      <trkpt lat="44.94162" lon="6.40898">
        <ele>2705.77</ele>
        <time>2020-07-25T01:52:21Z</time>
      </trkpt>
      <trkpt lat="44.94177" lon="6.40883">
        <ele>2709.61</ele>
        <time>2020-07-25T01:52:55Z</time>
      </trkpt>
      <trkpt lat="44.94192" lon="6.4088">
        <ele>2713.46</ele>
        <time>2020-07-25T01:53:30Z</time>
      </trkpt>
      <trkpt lat="44.94208" lon="6.40871">
        <ele>2718.75</ele>
        <time>2020-07-25T01:54:06Z</time>
      </trkpt>
      <trkpt lat="44.94222" lon="6.40854">
        <ele>2723.55</ele>
        <time>2020-07-25T01:54:40Z</time>
      </trkpt>
      <trkpt lat="44.94242" lon="6.40846">
        <ele>2728.36</ele>
        <time>2020-07-25T01:55:16Z</time>
      </trkpt>
      <trkpt lat="44.9426" lon="6.40834">
        <ele>2733.17</ele>
        <time>2020-07-25T01:55:52Z</time>
      </trkpt>
      <trkpt lat="44.94273" lon="6.40828">
        <ele>2737.49</ele>
        <time>2020-07-25T01:56:26Z</time>
      </trkpt>
      <trkpt lat="44.94283" lon="6.40814">
        <ele>2741.82</ele>
        <time>2020-07-25T01:56:56Z</time>
      </trkpt>
      <trkpt lat="44.94298" lon="6.40808">
        <ele>2747.1</ele>
        <time>2020-07-25T01:57:31Z</time>
      </trkpt>
      <trkpt lat="44.94308" lon="6.40803">
        <ele>2750.95</ele>
        <time>2020-07-25T01:57:59Z</time>
      </trkpt>
      <trkpt lat="44.9432" lon="6.40796">
        <ele>2755.76</ele>
        <time>2020-07-25T01:58:30Z</time>
      </trkpt>
      <trkpt lat="44.94332" lon="6.40796">
        <ele>2761.04</ele>
        <time>2020-07-25T01:59:02Z</time>
      </trkpt>
      <trkpt lat="44.94344" lon="6.40794">
        <ele>2765.85</ele>
        <time>2020-07-25T01:59:36Z</time>
      </trkpt>
      <trkpt lat="44.94351" lon="6.40779">
        <ele>2770.18</ele>
        <time>2020-07-25T02:00:08Z</time>
      </trkpt>
      <trkpt lat="44.94367" lon="6.40782">
        <ele>2774.5</ele>
        <time>2020-07-25T02:00:42Z</time>
      </trkpt>
      <trkpt lat="44.94375" lon="6.40761">
        <ele>2778.83</ele>
        <time>2020-07-25T02:01:18Z</time>
      </trkpt>
      <trkpt lat="44.94374" lon="6.40755">
        <ele>2778.83</ele>
        <time>2020-07-25T02:01:25Z</time>
      </trkpt>
      <trkpt lat="44.94376" lon="6.40744">
        <ele>2782.19</ele>
        <time>2020-07-25T02:01:42Z</time>
      </trkpt>
      <trkpt lat="44.94377" lon="6.40743">
        <ele>2782.19</ele>
        <time>2020-07-25T02:01:43Z</time>
      </trkpt>
      <trkpt lat="44.94385" lon="6.40718">
        <ele>2786.04</ele>
        <time>2020-07-25T02:02:18Z</time>
      </trkpt>
      <trkpt lat="44.94398" lon="6.40692">
        <ele>2790.36</ele>
        <time>2020-07-25T02:02:58Z</time>
      </trkpt>
      <trkpt lat="44.94407" lon="6.40673">
        <ele>2795.65</ele>
        <time>2020-07-25T02:03:33Z</time>
      </trkpt>
      <trkpt lat="44.94412" lon="6.40646">
        <ele>2800.94</ele>
        <time>2020-07-25T02:04:10Z</time>
      </trkpt>
      <trkpt lat="44.94424" lon="6.4064">
        <ele>2805.26</ele>
        <time>2020-07-25T02:04:44Z</time>
      </trkpt>
      <trkpt lat="44.94431" lon="6.40627">
        <ele>2811.51</ele>
        <time>2020-07-25T02:05:19Z</time>
      </trkpt>
      <trkpt lat="44.94436" lon="6.40617">
        <ele>2815.36</ele>
        <time>2020-07-25T02:05:52Z</time>
      </trkpt>
      <trkpt lat="44.94439" lon="6.4061">
        <ele>2819.2</ele>
        <time>2020-07-25T02:06:07Z</time>
      </trkpt>
      <trkpt lat="44.94442" lon="6.40603">
        <ele>2822.57</ele>
        <time>2020-07-25T02:06:23Z</time>
      </trkpt>
      <trkpt lat="44.94449" lon="6.40596">
        <ele>2825.93</ele>
        <time>2020-07-25T02:06:59Z</time>
      </trkpt>
      <trkpt lat="44.94457" lon="6.40593">
        <ele>2829.78</ele>
        <time>2020-07-25T02:07:22Z</time>
      </trkpt>
      <trkpt lat="44.94474" lon="6.40589">
        <ele>2834.58</ele>
        <time>2020-07-25T02:07:57Z</time>
      </trkpt>
      <trkpt lat="44.94486" lon="6.40579">
        <ele>2839.87</ele>
        <time>2020-07-25T02:08:30Z</time>
      </trkpt>
      <trkpt lat="44.94495" lon="6.40559">
        <ele>2843.72</ele>
        <time>2020-07-25T02:09:02Z</time>
      </trkpt>
      <trkpt lat="44.94528" lon="6.40523">
        <ele>2850.45</ele>
        <time>2020-07-25T02:10:05Z</time>
      </trkpt>
      <trkpt lat="44.94554" lon="6.40498">
        <ele>2853.81</ele>
        <time>2020-07-25T02:10:44Z</time>
      </trkpt>
      <trkpt lat="44.94573" lon="6.40481">
        <ele>2860.06</ele>
        <time>2020-07-25T02:11:18Z</time>
      </trkpt>
      <trkpt lat="44.94595" lon="6.40471">
        <ele>2865.83</ele>
        <time>2020-07-25T02:11:54Z</time>
      </trkpt>
      <trkpt lat="44.94596" lon="6.40472">
        <ele>2865.83</ele>
        <time>2020-07-25T02:11:56Z</time>
      </trkpt>
      <trkpt lat="44.9462" lon="6.40455">
        <ele>2862.46</ele>
        <time>2020-07-25T02:12:23Z</time>
      </trkpt>
      <trkpt lat="44.94657" lon="6.40374">
        <ele>2865.35</ele>
        <time>2020-07-25T02:21:15Z</time>
      </trkpt>
      <trkpt lat="44.94654" lon="6.40353">
        <ele>2859.58</ele>
        <time>2020-07-25T02:21:55Z</time>
      </trkpt>
      <trkpt lat="44.94653" lon="6.40268">
        <ele>2854.29</ele>
        <time>2020-07-25T02:23:48Z</time>
      </trkpt>
      <trkpt lat="44.9464" lon="6.40261">
        <ele>2850.93</ele>
        <time>2020-07-25T02:24:04Z</time>
      </trkpt>
      <trkpt lat="44.9461" lon="6.40211">
        <ele>2858.62</ele>
        <time>2020-07-25T02:46:55Z</time>
      </trkpt>
      <trkpt lat="44.94615" lon="6.40169">
        <ele>2863.42</ele>
        <time>2020-07-25T02:47:57Z</time>
      </trkpt>
      <trkpt lat="44.94628" lon="6.40133">
        <ele>2867.75</ele>
        <time>2020-07-25T02:48:54Z</time>
      </trkpt>
      <trkpt lat="44.94634" lon="6.40111">
        <ele>2871.11</ele>
        <time>2020-07-25T02:49:28Z</time>
      </trkpt>
      <trkpt lat="44.94642" lon="6.40092">
        <ele>2874.48</ele>
        <time>2020-07-25T02:50:01Z</time>
      </trkpt>
      <trkpt lat="44.94649" lon="6.40075">
        <ele>2877.84</ele>
        <time>2020-07-25T02:50:36Z</time>
      </trkpt>
      <trkpt lat="44.94661" lon="6.40055">
        <ele>2881.69</ele>
        <time>2020-07-25T02:51:13Z</time>
      </trkpt>
      <trkpt lat="44.94671" lon="6.40034">
        <ele>2887.46</ele>
        <time>2020-07-25T02:51:50Z</time>
      </trkpt>
      <trkpt lat="44.94691" lon="6.39996">
        <ele>2890.82</ele>
        <time>2020-07-25T02:52:55Z</time>
      </trkpt>
      <trkpt lat="44.94697" lon="6.39973">
        <ele>2894.67</ele>
        <time>2020-07-25T02:53:36Z</time>
      </trkpt>
      <trkpt lat="44.94705" lon="6.39948">
        <ele>2898.03</ele>
        <time>2020-07-25T02:54:16Z</time>
      </trkpt>
      <trkpt lat="44.94717" lon="6.39906">
        <ele>2905.24</ele>
        <time>2020-07-25T02:55:47Z</time>
      </trkpt>
      <trkpt lat="44.94723" lon="6.39889">
        <ele>2909.57</ele>
        <time>2020-07-25T02:56:23Z</time>
      </trkpt>
      <trkpt lat="44.94724" lon="6.39872">
        <ele>2914.37</ele>
        <time>2020-07-25T02:56:59Z</time>
      </trkpt>
      <trkpt lat="44.94724" lon="6.39864">
        <ele>2917.74</ele>
        <time>2020-07-25T02:57:15Z</time>
      </trkpt>
      <trkpt lat="44.94719" lon="6.39846">
        <ele>2922.54</ele>
        <time>2020-07-25T02:57:48Z</time>
      </trkpt>
      <trkpt lat="44.94719" lon="6.39824">
        <ele>2925.91</ele>
        <time>2020-07-25T02:58:21Z</time>
      </trkpt>
      <trkpt lat="44.94723" lon="6.39807">
        <ele>2929.27</ele>
        <time>2020-07-25T02:58:56Z</time>
      </trkpt>
      <trkpt lat="44.94735" lon="6.39791">
        <ele>2933.6</ele>
        <time>2020-07-25T02:59:45Z</time>
      </trkpt>
      <trkpt lat="44.9474" lon="6.39777">
        <ele>2936.97</ele>
        <time>2020-07-25T03:00:24Z</time>
      </trkpt>
      <trkpt lat="44.94743" lon="6.39762">
        <ele>2940.33</ele>
        <time>2020-07-25T03:00:58Z</time>
      </trkpt>
      <trkpt lat="44.94746" lon="6.39749">
        <ele>2944.66</ele>
        <time>2020-07-25T03:01:30Z</time>
      </trkpt>
      <trkpt lat="44.94751" lon="6.39734">
        <ele>2950.42</ele>
        <time>2020-07-25T03:02:02Z</time>
      </trkpt>
      <trkpt lat="44.94755" lon="6.39702">
        <ele>2955.71</ele>
        <time>2020-07-25T03:02:56Z</time>
      </trkpt>
      <trkpt lat="44.94758" lon="6.3968">
        <ele>2960.04</ele>
        <time>2020-07-25T03:03:32Z</time>
      </trkpt>
      <trkpt lat="44.94764" lon="6.39653">
        <ele>2964.36</ele>
        <time>2020-07-25T03:04:12Z</time>
      </trkpt>
      <trkpt lat="44.9477" lon="6.3962">
        <ele>2968.21</ele>
        <time>2020-07-25T03:05:03Z</time>
      </trkpt>
      <trkpt lat="44.94774" lon="6.3959">
        <ele>2972.05</ele>
        <time>2020-07-25T03:05:40Z</time>
      </trkpt>
      <trkpt lat="44.94779" lon="6.39538">
        <ele>2975.42</ele>
        <time>2020-07-25T03:06:40Z</time>
      </trkpt>
      <trkpt lat="44.9479" lon="6.39477">
        <ele>2979.26</ele>
        <time>2020-07-25T03:07:42Z</time>
      </trkpt>
      <trkpt lat="44.94796" lon="6.3941">
        <ele>2983.11</ele>
        <time>2020-07-25T03:08:57Z</time>
      </trkpt>
      <trkpt lat="44.94795" lon="6.39345">
        <ele>2986.47</ele>
        <time>2020-07-25T03:10:12Z</time>
      </trkpt>
      <trkpt lat="44.94796" lon="6.39298">
        <ele>2991.28</ele>
        <time>2020-07-25T03:11:13Z</time>
      </trkpt>
      <trkpt lat="44.94794" lon="6.39257">
        <ele>2995.12</ele>
        <time>2020-07-25T03:12:09Z</time>
      </trkpt>
      <trkpt lat="44.94793" lon="6.39231">
        <ele>2998.49</ele>
        <time>2020-07-25T03:12:47Z</time>
      </trkpt>
      <trkpt lat="44.94791" lon="6.39201">
        <ele>3002.33</ele>
        <time>2020-07-25T03:13:28Z</time>
      </trkpt>
      <trkpt lat="44.94791" lon="6.39168">
        <ele>3007.14</ele>
        <time>2020-07-25T03:14:07Z</time>
      </trkpt>
      <trkpt lat="44.9478" lon="6.39117">
        <ele>3010.99</ele>
        <time>2020-07-25T03:15:08Z</time>
      </trkpt>
      <trkpt lat="44.94768" lon="6.39084">
        <ele>3014.35</ele>
        <time>2020-07-25T03:15:51Z</time>
      </trkpt>
      <trkpt lat="44.94761" lon="6.39012">
        <ele>3018.2</ele>
        <time>2020-07-25T03:17:12Z</time>
      </trkpt>
      <trkpt lat="44.94741" lon="6.38893">
        <ele>3022.52</ele>
        <time>2020-07-25T03:19:20Z</time>
      </trkpt>
      <trkpt lat="44.94712" lon="6.38786">
        <ele>3026.37</ele>
        <time>2020-07-25T03:21:14Z</time>
      </trkpt>
      <trkpt lat="44.9469" lon="6.38671">
        <ele>3032.62</ele>
        <time>2020-07-25T03:25:16Z</time>
      </trkpt>
      <trkpt lat="44.94681" lon="6.38626">
        <ele>3036.46</ele>
        <time>2020-07-25T03:26:15Z</time>
      </trkpt>
      <trkpt lat="44.94671" lon="6.38578">
        <ele>3041.27</ele>
        <time>2020-07-25T03:27:15Z</time>
      </trkpt>
      <trkpt lat="44.94655" lon="6.38531">
        <ele>3044.63</ele>
        <time>2020-07-25T03:28:18Z</time>
      </trkpt>
      <trkpt lat="44.94642" lon="6.38479">
        <ele>3048.48</ele>
        <time>2020-07-25T03:29:17Z</time>
      </trkpt>
      <trkpt lat="44.94618" lon="6.38413">
        <ele>3051.84</ele>
        <time>2020-07-25T03:30:37Z</time>
      </trkpt>
      <trkpt lat="44.94594" lon="6.38332">
        <ele>3055.69</ele>
        <time>2020-07-25T03:32:17Z</time>
      </trkpt>
      <trkpt lat="44.94577" lon="6.38273">
        <ele>3059.53</ele>
        <time>2020-07-25T03:33:36Z</time>
      </trkpt>
      <trkpt lat="44.94565" lon="6.38232">
        <ele>3064.34</ele>
        <time>2020-07-25T03:34:34Z</time>
      </trkpt>
      <trkpt lat="44.94556" lon="6.38204">
        <ele>3067.7</ele>
        <time>2020-07-25T03:35:15Z</time>
      </trkpt>
      <trkpt lat="44.94543" lon="6.38174">
        <ele>3072.03</ele>
        <time>2020-07-25T03:35:58Z</time>
      </trkpt>
      <trkpt lat="44.94526" lon="6.38132">
        <ele>3075.4</ele>
        <time>2020-07-25T03:36:57Z</time>
      </trkpt>
      <trkpt lat="44.94502" lon="6.38109">
        <ele>3080.2</ele>
        <time>2020-07-25T03:37:57Z</time>
      </trkpt>
      <trkpt lat="44.9449" lon="6.38094">
        <ele>3084.05</ele>
        <time>2020-07-25T03:38:38Z</time>
      </trkpt>
      <trkpt lat="44.94476" lon="6.38075">
        <ele>3088.37</ele>
        <time>2020-07-25T03:39:17Z</time>
      </trkpt>
      <trkpt lat="44.94464" lon="6.38059">
        <ele>3092.7</ele>
        <time>2020-07-25T03:39:57Z</time>
      </trkpt>
      <trkpt lat="44.94452" lon="6.38037">
        <ele>3097.99</ele>
        <time>2020-07-25T03:40:40Z</time>
      </trkpt>
      <trkpt lat="44.94442" lon="6.38023">
        <ele>3101.35</ele>
        <time>2020-07-25T03:41:13Z</time>
      </trkpt>
      <trkpt lat="44.94431" lon="6.37998">
        <ele>3106.64</ele>
        <time>2020-07-25T03:41:54Z</time>
      </trkpt>
      <trkpt lat="44.9442" lon="6.37973">
        <ele>3110.96</ele>
        <time>2020-07-25T03:42:36Z</time>
      </trkpt>
      <trkpt lat="44.94408" lon="6.37949">
        <ele>3114.81</ele>
        <time>2020-07-25T03:43:19Z</time>
      </trkpt>
      <trkpt lat="44.94396" lon="6.3792">
        <ele>3119.13</ele>
        <time>2020-07-25T03:44:04Z</time>
      </trkpt>
      <trkpt lat="44.94391" lon="6.37892">
        <ele>3122.5</ele>
        <time>2020-07-25T03:44:40Z</time>
      </trkpt>
      <trkpt lat="44.94384" lon="6.37843">
        <ele>3126.83</ele>
        <time>2020-07-25T03:45:41Z</time>
      </trkpt>
      <trkpt lat="44.94371" lon="6.37781">
        <ele>3130.67</ele>
        <time>2020-07-25T03:46:52Z</time>
      </trkpt>
      <trkpt lat="44.94354" lon="6.37709">
        <ele>3134.52</ele>
        <time>2020-07-25T03:48:17Z</time>
      </trkpt>
      <trkpt lat="44.9434" lon="6.37662">
        <ele>3138.84</ele>
        <time>2020-07-25T03:49:20Z</time>
      </trkpt>
      <trkpt lat="44.94329" lon="6.37617">
        <ele>3142.69</ele>
        <time>2020-07-25T03:50:16Z</time>
      </trkpt>
      <trkpt lat="44.94322" lon="6.37586">
        <ele>3146.05</ele>
        <time>2020-07-25T03:50:58Z</time>
      </trkpt>
      <trkpt lat="44.94314" lon="6.37554">
        <ele>3149.9</ele>
        <time>2020-07-25T03:51:38Z</time>
      </trkpt>
      <trkpt lat="44.94304" lon="6.37524">
        <ele>3153.26</ele>
        <time>2020-07-25T03:52:18Z</time>
      </trkpt>
      <trkpt lat="44.94287" lon="6.37486">
        <ele>3156.63</ele>
        <time>2020-07-25T03:53:07Z</time>
      </trkpt>
      <trkpt lat="44.94248" lon="6.37414">
        <ele>3160.47</ele>
        <time>2020-07-25T03:54:40Z</time>
      </trkpt>
      <trkpt lat="44.94206" lon="6.37341">
        <ele>3163.84</ele>
        <time>2020-07-25T03:56:14Z</time>
      </trkpt>
      <trkpt lat="44.94166" lon="6.3727">
        <ele>3167.2</ele>
        <time>2020-07-25T03:57:45Z</time>
      </trkpt>
      <trkpt lat="44.94079" lon="6.37152">
        <ele>3170.57</ele>
        <time>2020-07-25T04:00:42Z</time>
      </trkpt>
      <trkpt lat="44.94035" lon="6.37093">
        <ele>3173.93</ele>
        <time>2020-07-25T04:02:10Z</time>
      </trkpt>
      <trkpt lat="44.94012" lon="6.37058">
        <ele>3177.29</ele>
        <time>2020-07-25T04:03:06Z</time>
      </trkpt>
      <trkpt lat="44.9399" lon="6.37032">
        <ele>3180.66</ele>
        <time>2020-07-25T04:03:59Z</time>
      </trkpt>
      <trkpt lat="44.93963" lon="6.37">
        <ele>3184.5</ele>
        <time>2020-07-25T04:04:57Z</time>
      </trkpt>
      <trkpt lat="44.93935" lon="6.36969">
        <ele>3188.83</ele>
        <time>2020-07-25T04:05:55Z</time>
      </trkpt>
      <trkpt lat="44.93905" lon="6.36939">
        <ele>3192.2</ele>
        <time>2020-07-25T04:06:56Z</time>
      </trkpt>
      <trkpt lat="44.93877" lon="6.36908">
        <ele>3197</ele>
        <time>2020-07-25T04:07:55Z</time>
      </trkpt>
      <trkpt lat="44.9385" lon="6.36876">
        <ele>3200.85</ele>
        <time>2020-07-25T04:08:51Z</time>
      </trkpt>
      <trkpt lat="44.93828" lon="6.36845">
        <ele>3204.21</ele>
        <time>2020-07-25T04:09:46Z</time>
      </trkpt>
      <trkpt lat="44.93804" lon="6.36813">
        <ele>3207.58</ele>
        <time>2020-07-25T04:13:48Z</time>
      </trkpt>
      <trkpt lat="44.93791" lon="6.36792">
        <ele>3210.94</ele>
        <time>2020-07-25T04:14:26Z</time>
      </trkpt>
      <trkpt lat="44.93778" lon="6.36774">
        <ele>3214.79</ele>
        <time>2020-07-25T04:15:07Z</time>
      </trkpt>
      <trkpt lat="44.93764" lon="6.36755">
        <ele>3219.59</ele>
        <time>2020-07-25T04:15:46Z</time>
      </trkpt>
      <trkpt lat="44.93748" lon="6.36732">
        <ele>3223.92</ele>
        <time>2020-07-25T04:16:25Z</time>
      </trkpt>
      <trkpt lat="44.93727" lon="6.36706">
        <ele>3227.28</ele>
        <time>2020-07-25T04:17:07Z</time>
      </trkpt>
      <trkpt lat="44.93701" lon="6.36673">
        <ele>3230.65</ele>
        <time>2020-07-25T04:18:06Z</time>
      </trkpt>
      <trkpt lat="44.93675" lon="6.36643">
        <ele>3234.49</ele>
        <time>2020-07-25T04:19:02Z</time>
      </trkpt>
      <trkpt lat="44.9366" lon="6.36624">
        <ele>3237.86</ele>
        <time>2020-07-25T04:19:43Z</time>
      </trkpt>
      <trkpt lat="44.93646" lon="6.36605">
        <ele>3241.22</ele>
        <time>2020-07-25T04:20:24Z</time>
      </trkpt>
      <trkpt lat="44.93633" lon="6.36585">
        <ele>3245.55</ele>
        <time>2020-07-25T04:20:59Z</time>
      </trkpt>
      <trkpt lat="44.93612" lon="6.36568">
        <ele>3249.39</ele>
        <time>2020-07-25T04:21:37Z</time>
      </trkpt>
      <trkpt lat="44.93591" lon="6.3655">
        <ele>3252.76</ele>
        <time>2020-07-25T04:22:16Z</time>
      </trkpt>
      <trkpt lat="44.93511" lon="6.36476">
        <ele>3258.05</ele>
        <time>2020-07-25T04:24:32Z</time>
      </trkpt>
      <trkpt lat="44.93343" lon="6.36305">
        <ele>3261.41</ele>
        <time>2020-07-25T04:29:07Z</time>
      </trkpt>
      <trkpt lat="44.93314" lon="6.36279">
        <ele>3265.26</ele>
        <time>2020-07-25T04:30:02Z</time>
      </trkpt>
      <trkpt lat="44.93248" lon="6.36231">
        <ele>3277.75</ele>
        <time>2020-07-25T04:43:31Z</time>
      </trkpt>
      <trkpt lat="44.93236" lon="6.36224">
        <ele>3281.12</ele>
        <time>2020-07-25T04:43:58Z</time>
      </trkpt>
      <trkpt lat="44.93217" lon="6.36219">
        <ele>3285.44</ele>
        <time>2020-07-25T04:44:39Z</time>
      </trkpt>
      <trkpt lat="44.93196" lon="6.36217">
        <ele>3289.77</ele>
        <time>2020-07-25T04:45:21Z</time>
      </trkpt>
      <trkpt lat="44.93177" lon="6.36211">
        <ele>3294.09</ele>
        <time>2020-07-25T04:46:04Z</time>
      </trkpt>
      <trkpt lat="44.93165" lon="6.3621">
        <ele>3297.94</ele>
        <time>2020-07-25T04:46:44Z</time>
      </trkpt>
      <trkpt lat="44.93151" lon="6.36208">
        <ele>3301.3</ele>
        <time>2020-07-25T04:47:21Z</time>
      </trkpt>
      <trkpt lat="44.9314" lon="6.36208">
        <ele>3306.59</ele>
        <time>2020-07-25T04:48:03Z</time>
      </trkpt>
      <trkpt lat="44.9313" lon="6.36212">
        <ele>3311.4</ele>
        <time>2020-07-25T04:48:41Z</time>
      </trkpt>
      <trkpt lat="44.93121" lon="6.36217">
        <ele>3315.24</ele>
        <time>2020-07-25T04:49:19Z</time>
      </trkpt>
      <trkpt lat="44.93116" lon="6.36221">
        <ele>3319.09</ele>
        <time>2020-07-25T04:49:56Z</time>
      </trkpt>
      <trkpt lat="44.93108" lon="6.36224">
        <ele>3323.42</ele>
        <time>2020-07-25T04:50:28Z</time>
      </trkpt>
      <trkpt lat="44.93102" lon="6.36223">
        <ele>3327.74</ele>
        <time>2020-07-25T04:51:04Z</time>
      </trkpt>
      <trkpt lat="44.93096" lon="6.36225">
        <ele>3332.55</ele>
        <time>2020-07-25T04:51:40Z</time>
      </trkpt>
      <trkpt lat="44.93089" lon="6.36229">
        <ele>3336.87</ele>
        <time>2020-07-25T04:52:12Z</time>
      </trkpt>
      <trkpt lat="44.93081" lon="6.36223">
        <ele>3343.12</ele>
        <time>2020-07-25T04:52:40Z</time>
      </trkpt>
      <trkpt lat="44.93078" lon="6.36212">
        <ele>3347.45</ele>
        <time>2020-07-25T04:53:15Z</time>
      </trkpt>
      <trkpt lat="44.93076" lon="6.36198">
        <ele>3351.77</ele>
        <time>2020-07-25T04:53:55Z</time>
      </trkpt>
      <trkpt lat="44.93072" lon="6.36203">
        <ele>3356.1</ele>
        <time>2020-07-25T04:54:29Z</time>
      </trkpt>
      <trkpt lat="44.93065" lon="6.36209">
        <ele>3361.39</ele>
        <time>2020-07-25T04:55:02Z</time>
      </trkpt>
      <trkpt lat="44.93059" lon="6.36214">
        <ele>3364.75</ele>
        <time>2020-07-25T04:55:36Z</time>
      </trkpt>
      <trkpt lat="44.93055" lon="6.36212">
        <ele>3369.56</ele>
        <time>2020-07-25T04:56:15Z</time>
      </trkpt>
      <trkpt lat="44.9305" lon="6.36205">
        <ele>3374.36</ele>
        <time>2020-07-25T04:56:48Z</time>
      </trkpt>
      <trkpt lat="44.93044" lon="6.362">
        <ele>3379.65</ele>
        <time>2020-07-25T04:57:25Z</time>
      </trkpt>
      <trkpt lat="44.9304" lon="6.36191">
        <ele>3383.98</ele>
        <time>2020-07-25T04:58:00Z</time>
      </trkpt>
      <trkpt lat="44.93036" lon="6.36183">
        <ele>3389.27</ele>
        <time>2020-07-25T04:58:35Z</time>
      </trkpt>
      <trkpt lat="44.93033" lon="6.36175">
        <ele>3393.59</ele>
        <time>2020-07-25T04:59:09Z</time>
      </trkpt>
      <trkpt lat="44.93024" lon="6.36178">
        <ele>3398.88</ele>
        <time>2020-07-25T04:59:49Z</time>
      </trkpt>
      <trkpt lat="44.93019" lon="6.36167">
        <ele>3404.65</ele>
        <time>2020-07-25T05:00:26Z</time>
      </trkpt>
      <trkpt lat="44.93014" lon="6.36157">
        <ele>3408.97</ele>
        <time>2020-07-25T05:01:03Z</time>
      </trkpt>
      <trkpt lat="44.9301" lon="6.36143">
        <ele>3413.78</ele>
        <time>2020-07-25T05:01:46Z</time>
      </trkpt>
      <trkpt lat="44.93004" lon="6.36134">
        <ele>3419.07</ele>
        <time>2020-07-25T05:02:20Z</time>
      </trkpt>
      <trkpt lat="44.92995" lon="6.36145">
        <ele>3424.35</ele>
        <time>2020-07-25T05:03:00Z</time>
      </trkpt>
      <trkpt lat="44.92989" lon="6.36155">
        <ele>3428.68</ele>
        <time>2020-07-25T05:03:39Z</time>
      </trkpt>
      <trkpt lat="44.92984" lon="6.36164">
        <ele>3433.01</ele>
        <time>2020-07-25T05:04:20Z</time>
      </trkpt>
      <trkpt lat="44.9298" lon="6.36155">
        <ele>3437.33</ele>
        <time>2020-07-25T05:05:00Z</time>
      </trkpt>
      <trkpt lat="44.92972" lon="6.36148">
        <ele>3442.62</ele>
        <time>2020-07-25T05:05:36Z</time>
      </trkpt>
      <trkpt lat="44.92969" lon="6.36153">
        <ele>3448.39</ele>
        <time>2020-07-25T05:06:04Z</time>
      </trkpt>
      <trkpt lat="44.92963" lon="6.36164">
        <ele>3452.23</ele>
        <time>2020-07-25T05:06:45Z</time>
      </trkpt>
      <trkpt lat="44.92958" lon="6.36169">
        <ele>3456.08</ele>
        <time>2020-07-25T05:07:20Z</time>
      </trkpt>
      <trkpt lat="44.92956" lon="6.3617">
        <ele>3460.4</ele>
        <time>2020-07-25T05:08:01Z</time>
      </trkpt>
      <trkpt lat="44.9295" lon="6.36173">
        <ele>3465.21</ele>
        <time>2020-07-25T05:08:37Z</time>
      </trkpt>
      <trkpt lat="44.92946" lon="6.36178">
        <ele>3468.57</ele>
        <time>2020-07-25T05:09:12Z</time>
      </trkpt>
      <trkpt lat="44.92946" lon="6.36178">
        <ele>3471.94</ele>
        <time>2020-07-25T05:09:27Z</time>
      </trkpt>
      <trkpt lat="44.92939" lon="6.36168">
        <ele>3476.75</ele>
        <time>2020-07-25T05:10:09Z</time>
      </trkpt>
      <trkpt lat="44.92936" lon="6.36166">
        <ele>3481.07</ele>
        <time>2020-07-25T05:10:42Z</time>
      </trkpt>
      <trkpt lat="44.92931" lon="6.36167">
        <ele>3484.92</ele>
        <time>2020-07-25T05:11:14Z</time>
      </trkpt>
      <trkpt lat="44.92925" lon="6.36168">
        <ele>3489.72</ele>
        <time>2020-07-25T05:11:46Z</time>
      </trkpt>
      <trkpt lat="44.9292" lon="6.3617">
        <ele>3493.57</ele>
        <time>2020-07-25T05:12:16Z</time>
      </trkpt>
      <trkpt lat="44.92916" lon="6.36171">
        <ele>3499.34</ele>
        <time>2020-07-25T05:12:52Z</time>
      </trkpt>
      <trkpt lat="44.9291" lon="6.36172">
        <ele>3502.7</ele>
        <time>2020-07-25T05:13:28Z</time>
      </trkpt>
      <trkpt lat="44.92905" lon="6.36173">
        <ele>3507.99</ele>
        <time>2020-07-25T05:14:06Z</time>
      </trkpt>
      <trkpt lat="44.92899" lon="6.36176">
        <ele>3511.83</ele>
        <time>2020-07-25T05:14:36Z</time>
      </trkpt>
      <trkpt lat="44.92893" lon="6.36179">
        <ele>3517.12</ele>
        <time>2020-07-25T05:15:11Z</time>
      </trkpt>
      <trkpt lat="44.92887" lon="6.36181">
        <ele>3521.45</ele>
        <time>2020-07-25T05:15:50Z</time>
      </trkpt>
      <trkpt lat="44.92882" lon="6.36183">
        <ele>3525.77</ele>
        <time>2020-07-25T05:16:22Z</time>
      </trkpt>
      <trkpt lat="44.92875" lon="6.36182">
        <ele>3530.1</ele>
        <time>2020-07-25T05:16:54Z</time>
      </trkpt>
      <trkpt lat="44.92868" lon="6.36186">
        <ele>3534.9</ele>
        <time>2020-07-25T05:17:27Z</time>
      </trkpt>
      <trkpt lat="44.92862" lon="6.36179">
        <ele>3539.71</ele>
        <time>2020-07-25T05:18:04Z</time>
      </trkpt>
      <trkpt lat="44.92857" lon="6.36175">
        <ele>3544.04</ele>
        <time>2020-07-25T05:18:40Z</time>
      </trkpt>
      <trkpt lat="44.92848" lon="6.36176">
        <ele>3548.84</ele>
        <time>2020-07-25T05:19:20Z</time>
      </trkpt>
      <trkpt lat="44.92841" lon="6.36172">
        <ele>3553.65</ele>
        <time>2020-07-25T05:19:53Z</time>
      </trkpt>
      <trkpt lat="44.92835" lon="6.36169">
        <ele>3557.98</ele>
        <time>2020-07-25T05:20:26Z</time>
      </trkpt>
      <trkpt lat="44.92826" lon="6.36165">
        <ele>3562.78</ele>
        <time>2020-07-25T05:21:01Z</time>
      </trkpt>
      <trkpt lat="44.9282" lon="6.36165">
        <ele>3568.07</ele>
        <time>2020-07-25T05:21:36Z</time>
      </trkpt>
      <trkpt lat="44.92812" lon="6.36159">
        <ele>3572.4</ele>
        <time>2020-07-25T05:22:11Z</time>
      </trkpt>
      <trkpt lat="44.92804" lon="6.36155">
        <ele>3577.2</ele>
        <time>2020-07-25T05:22:48Z</time>
      </trkpt>
      <trkpt lat="44.92801" lon="6.36156">
        <ele>3580.57</ele>
        <time>2020-07-25T05:23:05Z</time>
      </trkpt>
      <trkpt lat="44.92794" lon="6.36152">
        <ele>3585.85</ele>
        <time>2020-07-25T05:23:40Z</time>
      </trkpt>
      <trkpt lat="44.92788" lon="6.36153">
        <ele>3589.22</ele>
        <time>2020-07-25T05:23:58Z</time>
      </trkpt>
      <trkpt lat="44.92779" lon="6.36158">
        <ele>3594.03</ele>
        <time>2020-07-25T05:24:39Z</time>
      </trkpt>
      <trkpt lat="44.92773" lon="6.36161">
        <ele>3597.39</ele>
        <time>2020-07-25T05:24:59Z</time>
      </trkpt>
      <trkpt lat="44.92765" lon="6.36163">
        <ele>3601.24</ele>
        <time>2020-07-25T05:25:49Z</time>
      </trkpt>
      <trkpt lat="44.92765" lon="6.36164">
        <ele>3601.24</ele>
        <time>2020-07-25T05:26:25Z</time>
      </trkpt>
      <trkpt lat="44.92757" lon="6.3617">
        <ele>3605.08</ele>
        <time>2020-07-25T05:29:59Z</time>
      </trkpt>
      <trkpt lat="44.92749" lon="6.36178">
        <ele>3608.45</ele>
        <time>2020-07-25T05:30:29Z</time>
      </trkpt>
      <trkpt lat="44.9274" lon="6.36193">
        <ele>3612.29</ele>
        <time>2020-07-25T05:30:57Z</time>
      </trkpt>
      <trkpt lat="44.92723" lon="6.36227">
        <ele>3616.14</ele>
        <time>2020-07-25T05:31:58Z</time>
      </trkpt>
      <trkpt lat="44.92717" lon="6.36246">
        <ele>3620.46</ele>
        <time>2020-07-25T05:32:49Z</time>
      </trkpt>
      <trkpt lat="44.92715" lon="6.36257">
        <ele>3624.31</ele>
        <time>2020-07-25T05:33:23Z</time>
      </trkpt>
      <trkpt lat="44.92713" lon="6.36267">
        <ele>3628.15</ele>
        <time>2020-07-25T05:33:43Z</time>
      </trkpt>
      <trkpt lat="44.92706" lon="6.36281">
        <ele>3632.48</ele>
        <time>2020-07-25T05:34:39Z</time>
      </trkpt>
      <trkpt lat="44.92714" lon="6.36288">
        <ele>3628.15</ele>
        <time>2020-07-25T05:35:18Z</time>
      </trkpt>
      <trkpt lat="44.92714" lon="6.36298">
        <ele>3631.52</ele>
        <time>2020-07-25T05:37:32Z</time>
      </trkpt>
      <trkpt lat="44.92711" lon="6.36304">
        <ele>3634.88</ele>
        <time>2020-07-25T05:38:31Z</time>
      </trkpt>
      <trkpt lat="44.92709" lon="6.36312">
        <ele>3639.69</ele>
        <time>2020-07-25T05:39:25Z</time>
      </trkpt>
      <trkpt lat="44.92707" lon="6.36317">
        <ele>3644.98</ele>
        <time>2020-07-25T05:40:01Z</time>
      </trkpt>
      <trkpt lat="44.92721" lon="6.36357">
        <ele>3650.26</ele>
        <time>2020-07-25T05:42:57Z</time>
      </trkpt>
      <trkpt lat="44.92758" lon="6.36487">
        <ele>3650.26</ele>
        <time>2020-07-25T05:46:46Z</time>
      </trkpt>
      <trkpt lat="44.9279" lon="6.36704">
        <ele>3654.11</ele>
        <time>2020-07-25T05:50:57Z</time>
      </trkpt>
      <trkpt lat="44.92776" lon="6.36691">
        <ele>3659.88</ele>
        <time>2020-07-25T05:54:32Z</time>
      </trkpt>
      <trkpt lat="44.92765" lon="6.36681">
        <ele>3665.64</ele>
        <time>2020-07-25T05:55:12Z</time>
      </trkpt>
      <trkpt lat="44.92755" lon="6.36667">
        <ele>3669.97</ele>
        <time>2020-07-25T05:55:53Z</time>
      </trkpt>
      <trkpt lat="44.92749" lon="6.36657">
        <ele>3673.33</ele>
        <time>2020-07-25T05:56:30Z</time>
      </trkpt>
      <trkpt lat="44.92742" lon="6.36646">
        <ele>3678.14</ele>
        <time>2020-07-25T05:57:11Z</time>
      </trkpt>
      <trkpt lat="44.92734" lon="6.3664">
        <ele>3682.47</ele>
        <time>2020-07-25T05:57:51Z</time>
      </trkpt>
      <trkpt lat="44.92732" lon="6.36639">
        <ele>3685.83</ele>
        <time>2020-07-25T05:58:07Z</time>
      </trkpt>
      <trkpt lat="44.92728" lon="6.36634">
        <ele>3689.2</ele>
        <time>2020-07-25T05:58:25Z</time>
      </trkpt>
      <trkpt lat="44.92721" lon="6.36626">
        <ele>3694</ele>
        <time>2020-07-25T05:58:57Z</time>
      </trkpt>
      <trkpt lat="44.92711" lon="6.36618">
        <ele>3698.81</ele>
        <time>2020-07-25T05:59:34Z</time>
      </trkpt>
      <trkpt lat="44.92705" lon="6.36609">
        <ele>3702.17</ele>
        <time>2020-07-25T05:59:55Z</time>
      </trkpt>
      <trkpt lat="44.92692" lon="6.36588">
        <ele>3706.98</ele>
        <time>2020-07-25T06:00:42Z</time>
      </trkpt>
      <trkpt lat="44.92683" lon="6.36575">
        <ele>3710.83</ele>
        <time>2020-07-25T06:01:18Z</time>
      </trkpt>
      <trkpt lat="44.92674" lon="6.36561">
        <ele>3715.63</ele>
        <time>2020-07-25T06:01:56Z</time>
      </trkpt>
      <trkpt lat="44.92664" lon="6.36544">
        <ele>3720.92</ele>
        <time>2020-07-25T06:02:45Z</time>
      </trkpt>
      <trkpt lat="44.92653" lon="6.3653">
        <ele>3726.21</ele>
        <time>2020-07-25T06:03:26Z</time>
      </trkpt>
      <trkpt lat="44.92642" lon="6.36523">
        <ele>3731.01</ele>
        <time>2020-07-25T06:04:02Z</time>
      </trkpt>
      <trkpt lat="44.92629" lon="6.36512">
        <ele>3736.3</ele>
        <time>2020-07-25T06:04:42Z</time>
      </trkpt>
      <trkpt lat="44.92612" lon="6.36491">
        <ele>3741.59</ele>
        <time>2020-07-25T06:05:41Z</time>
      </trkpt>
      <trkpt lat="44.92604" lon="6.36475">
        <ele>3745.91</ele>
        <time>2020-07-25T06:06:19Z</time>
      </trkpt>
      <trkpt lat="44.92597" lon="6.36462">
        <ele>3749.76</ele>
        <time>2020-07-25T06:07:00Z</time>
      </trkpt>
      <trkpt lat="44.92589" lon="6.36449">
        <ele>3753.12</ele>
        <time>2020-07-25T06:10:55Z</time>
      </trkpt>
      <trkpt lat="44.92581" lon="6.36433">
        <ele>3757.45</ele>
        <time>2020-07-25T06:11:33Z</time>
      </trkpt>
      <trkpt lat="44.92574" lon="6.36413">
        <ele>3761.3</ele>
        <time>2020-07-25T06:12:16Z</time>
      </trkpt>
      <trkpt lat="44.9257" lon="6.36404">
        <ele>3764.66</ele>
        <time>2020-07-25T06:12:38Z</time>
      </trkpt>
      <trkpt lat="44.92558" lon="6.36384">
        <ele>3768.99</ele>
        <time>2020-07-25T06:13:22Z</time>
      </trkpt>
      <trkpt lat="44.92554" lon="6.36368">
        <ele>3772.35</ele>
        <time>2020-07-25T06:14:04Z</time>
      </trkpt>
      <trkpt lat="44.92549" lon="6.36363">
        <ele>3776.68</ele>
        <time>2020-07-25T06:14:40Z</time>
      </trkpt>
      <trkpt lat="44.92544" lon="6.3636">
        <ele>3780.04</ele>
        <time>2020-07-25T06:15:16Z</time>
      </trkpt>
      <trkpt lat="44.92535" lon="6.36355">
        <ele>3784.85</ele>
        <time>2020-07-25T06:15:53Z</time>
      </trkpt>
      <trkpt lat="44.92532" lon="6.36351">
        <ele>3788.21</ele>
        <time>2020-07-25T06:16:35Z</time>
      </trkpt>
      <trkpt lat="44.9253" lon="6.3635">
        <ele>3793.98</ele>
        <time>2020-07-25T06:17:10Z</time>
      </trkpt>
      <trkpt lat="44.92519" lon="6.36351">
        <ele>3799.27</ele>
        <time>2020-07-25T06:18:18Z</time>
      </trkpt>
      <trkpt lat="44.92515" lon="6.36346">
        <ele>3805.04</ele>
        <time>2020-07-25T06:19:28Z</time>
      </trkpt>
      <trkpt lat="44.9251" lon="6.36342">
        <ele>3808.4</ele>
        <time>2020-07-25T06:20:39Z</time>
      </trkpt>
      <trkpt lat="44.92506" lon="6.36341">
        <ele>3813.21</ele>
        <time>2020-07-25T06:21:11Z</time>
      </trkpt>
      <trkpt lat="44.92503" lon="6.36339">
        <ele>3817.53</ele>
        <time>2020-07-25T06:21:47Z</time>
      </trkpt>
      <trkpt lat="44.92498" lon="6.36337">
        <ele>3820.9</ele>
        <time>2020-07-25T06:22:27Z</time>
      </trkpt>
      <trkpt lat="44.92494" lon="6.36334">
        <ele>3825.22</ele>
        <time>2020-07-25T06:23:05Z</time>
      </trkpt>
      <trkpt lat="44.92491" lon="6.36332">
        <ele>3829.07</ele>
        <time>2020-07-25T06:23:43Z</time>
      </trkpt>
      <trkpt lat="44.92486" lon="6.36329">
        <ele>3832.43</ele>
        <time>2020-07-25T06:24:22Z</time>
      </trkpt>
      <trkpt lat="44.92481" lon="6.36329">
        <ele>3838.68</ele>
        <time>2020-07-25T06:24:59Z</time>
      </trkpt>
      <trkpt lat="44.92476" lon="6.36328">
        <ele>3843.01</ele>
        <time>2020-07-25T06:25:37Z</time>
      </trkpt>
      <trkpt lat="44.92472" lon="6.36325">
        <ele>3846.37</ele>
        <time>2020-07-25T06:25:52Z</time>
      </trkpt>
      <trkpt lat="44.92468" lon="6.36319">
        <ele>3850.7</ele>
        <time>2020-07-25T06:26:29Z</time>
      </trkpt>
      <trkpt lat="44.92463" lon="6.36316">
        <ele>3854.06</ele>
        <time>2020-07-25T06:26:49Z</time>
      </trkpt>
      <trkpt lat="44.92453" lon="6.36306">
        <ele>3859.35</ele>
        <time>2020-07-25T06:27:28Z</time>
      </trkpt>
      <trkpt lat="44.92442" lon="6.36292">
        <ele>3864.64</ele>
        <time>2020-07-25T06:28:10Z</time>
      </trkpt>
      <trkpt lat="44.92431" lon="6.36288">
        <ele>3871.85</ele>
        <time>2020-07-25T06:42:08Z</time>
      </trkpt>
      <trkpt lat="44.9242" lon="6.36277">
        <ele>3877.62</ele>
        <time>2020-07-25T06:42:54Z</time>
      </trkpt>
      <trkpt lat="44.92414" lon="6.36272">
        <ele>3881.46</ele>
        <time>2020-07-25T06:43:35Z</time>
      </trkpt>
      <trkpt lat="44.92409" lon="6.36265">
        <ele>3884.82</ele>
        <time>2020-07-25T06:44:16Z</time>
      </trkpt>
      <trkpt lat="44.92403" lon="6.36257">
        <ele>3889.15</ele>
        <time>2020-07-25T06:44:56Z</time>
      </trkpt>
      <trkpt lat="44.92399" lon="6.36249">
        <ele>3893</ele>
        <time>2020-07-25T06:45:36Z</time>
      </trkpt>
      <trkpt lat="44.92388" lon="6.36226">
        <ele>3903.57</ele>
        <time>2020-07-25T07:23:26Z</time>
      </trkpt>
      <trkpt lat="44.92386" lon="6.36224">
        <ele>3906.94</ele>
        <time>2020-07-25T07:27:51Z</time>
      </trkpt>
      <trkpt lat="44.92384" lon="6.3622">
        <ele>3910.3</ele>
        <time>2020-07-25T07:31:14Z</time>
      </trkpt>
      <trkpt lat="44.92373" lon="6.36203">
        <ele>3916.55</ele>
        <time>2020-07-25T07:42:59Z</time>
      </trkpt>
      <trkpt lat="44.92369" lon="6.36198">
        <ele>3935.29</ele>
        <time>2020-07-25T08:17:31Z</time>
      </trkpt>
      <trkpt lat="44.92361" lon="6.36194">
        <ele>3942.98</ele>
        <time>2020-07-25T08:19:02Z</time>
      </trkpt>
      <trkpt lat="44.92353" lon="6.36189">
        <ele>3963.17</ele>
        <time>2020-07-25T08:55:03Z</time>
      </trkpt>
      <trkpt lat="44.92343" lon="6.36186">
        <ele>3975.67</ele>
        <time>2020-07-25T09:01:58Z</time>
      </trkpt>
      <trkpt lat="44.92338" lon="6.36189">
        <ele>3974.71</ele>
        <time>2020-07-25T09:10:33Z</time>
      </trkpt>
      <trkpt lat="44.92333" lon="6.36191">
        <ele>3980.96</ele>
        <time>2020-07-25T09:15:46Z</time>
      </trkpt>
      <trkpt lat="44.92326" lon="6.36188">
        <ele>3985.76</ele>
        <time>2020-07-25T09:17:13Z</time>
      </trkpt>
      <trkpt lat="44.92324" lon="6.36187">
        <ele>3990.57</ele>
        <time>2020-07-25T09:18:11Z</time>
      </trkpt>
      <trkpt lat="44.92317" lon="6.36155">
        <ele>3996.34</ele>
        <time>2020-07-25T09:30:09Z</time>
      </trkpt>
      <trkpt lat="44.92301" lon="6.36143">
        <ele>4012.2</ele>
        <time>2020-07-25T09:34:15Z</time>
      </trkpt>
      <trkpt lat="44.92292" lon="6.36137">
        <ele>4016.53</ele>
        <time>2020-07-25T09:35:35Z</time>
      </trkpt>
      <trkpt lat="44.92287" lon="6.36126">
        <ele>4024.7</ele>
        <time>2020-07-25T09:37:10Z</time>
      </trkpt>
      <trkpt lat="44.92277" lon="6.36098">
        <ele>4040.56</ele>
        <time>2020-07-25T09:42:14Z</time>
      </trkpt>
      <trkpt lat="44.92263" lon="6.36051">
        <ele>4057.38</ele>
        <time>2020-07-25T09:50:55Z</time>
      </trkpt>
      <trkpt lat="44.92251" lon="6.36012">
        <ele>4070.36</ele>
        <time>2020-07-25T09:59:57Z</time>
      </trkpt>
      <trkpt lat="44.92244" lon="6.35995">
        <ele>4079.49</ele>
        <time>2020-07-25T10:02:18Z</time>
      </trkpt>
      <trkpt lat="44.92232" lon="6.35977">
        <ele>4087.66</ele>
        <time>2020-07-25T10:04:57Z</time>
      </trkpt>
      <trkpt lat="44.92221" lon="6.35952">
        <ele>4094.39</ele>
        <time>2020-07-25T10:17:54Z</time>
      </trkpt>
      <trkpt lat="44.92224" lon="6.35834">
        <ele>4081.9</ele>
        <time>2020-07-25T10:38:02Z</time>
      </trkpt>
      <trkpt lat="44.92229" lon="6.35811">
        <ele>4077.57</ele>
        <time>2020-07-25T10:41:06Z</time>
      </trkpt>
      <trkpt lat="44.92226" lon="6.35787">
        <ele>4082.38</ele>
        <time>2020-07-25T10:42:38Z</time>
      </trkpt>
      <trkpt lat="44.92233" lon="6.35757">
        <ele>4085.74</ele>
        <time>2020-07-25T10:44:51Z</time>
      </trkpt>
      <trkpt lat="44.92243" lon="6.35739">
        <ele>4077.57</ele>
        <time>2020-07-25T10:46:19Z</time>
      </trkpt>
      <trkpt lat="44.92252" lon="6.35724">
        <ele>4069.88</ele>
        <time>2020-07-25T10:49:33Z</time>
      </trkpt>
      <trkpt lat="44.92259" lon="6.35706">
        <ele>4061.23</ele>
        <time>2020-07-25T10:56:00Z</time>
      </trkpt>
      <trkpt lat="44.92267" lon="6.35689">
        <ele>4055.46</ele>
        <time>2020-07-25T11:01:06Z</time>
      </trkpt>
      <trkpt lat="44.92272" lon="6.35683">
        <ele>4048.25</ele>
        <time>2020-07-25T11:04:15Z</time>
      </trkpt>
      <trkpt lat="44.92279" lon="6.35675">
        <ele>4040.56</ele>
        <time>2020-07-25T11:06:28Z</time>
      </trkpt>
      <trkpt lat="44.92286" lon="6.35664">
        <ele>4034.79</ele>
        <time>2020-07-25T11:10:02Z</time>
      </trkpt>
      <trkpt lat="44.92291" lon="6.35662">
        <ele>4030.95</ele>
        <time>2020-07-25T11:11:14Z</time>
      </trkpt>
      <trkpt lat="44.92297" lon="6.35657">
        <ele>4027.1</ele>
        <time>2020-07-25T11:12:12Z</time>
      </trkpt>
      <trkpt lat="44.92309" lon="6.35644">
        <ele>4013.64</ele>
        <time>2020-07-25T11:16:31Z</time>
      </trkpt>
      <trkpt lat="44.9232" lon="6.35624">
        <ele>4008.35</ele>
        <time>2020-07-25T11:18:12Z</time>
      </trkpt>
      <trkpt lat="44.92324" lon="6.35614">
        <ele>4008.35</ele>
        <time>2020-07-25T11:18:31Z</time>
      </trkpt>
      <trkpt lat="44.92341" lon="6.35601">
        <ele>3990.09</ele>
        <time>2020-07-25T11:37:48Z</time>
      </trkpt>
      <trkpt lat="44.92347" lon="6.35603">
        <ele>3985.28</ele>
        <time>2020-07-25T11:38:23Z</time>
      </trkpt>
      <trkpt lat="44.92354" lon="6.35606">
        <ele>3975.19</ele>
        <time>2020-07-25T11:52:29Z</time>
      </trkpt>
      <trkpt lat="44.92359" lon="6.35612">
        <ele>3969.42</ele>
        <time>2020-07-25T11:53:05Z</time>
      </trkpt>
      <trkpt lat="44.92367" lon="6.35618">
        <ele>3954.52</ele>
        <time>2020-07-25T11:54:14Z</time>
      </trkpt>
      <trkpt lat="44.92371" lon="6.35648">
        <ele>3941.54</ele>
        <time>2020-07-25T12:13:30Z</time>
      </trkpt>
      <trkpt lat="44.9237" lon="6.35668">
        <ele>3937.7</ele>
        <time>2020-07-25T12:13:47Z</time>
      </trkpt>
      <trkpt lat="44.92365" lon="6.35698">
        <ele>3933.85</ele>
        <time>2020-07-25T12:14:13Z</time>
      </trkpt>
      <trkpt lat="44.92358" lon="6.35907">
        <ele>3929.05</ele>
        <time>2020-07-25T12:16:41Z</time>
      </trkpt>
      <trkpt lat="44.92366" lon="6.3596">
        <ele>3922.8</ele>
        <time>2020-07-25T12:17:18Z</time>
      </trkpt>
      <trkpt lat="44.92368" lon="6.35981">
        <ele>3918.47</ele>
        <time>2020-07-25T12:17:34Z</time>
      </trkpt>
      <trkpt lat="44.9237" lon="6.35991">
        <ele>3914.63</ele>
        <time>2020-07-25T12:17:43Z</time>
      </trkpt>
      <trkpt lat="44.92372" lon="6.35999">
        <ele>3910.78</ele>
        <time>2020-07-25T12:17:52Z</time>
      </trkpt>
      <trkpt lat="44.92374" lon="6.36008">
        <ele>3907.42</ele>
        <time>2020-07-25T12:18:01Z</time>
      </trkpt>
      <trkpt lat="44.92377" lon="6.3602">
        <ele>3902.61</ele>
        <time>2020-07-25T12:18:14Z</time>
      </trkpt>
      <trkpt lat="44.92379" lon="6.36029">
        <ele>3899.24</ele>
        <time>2020-07-25T12:18:24Z</time>
      </trkpt>
      <trkpt lat="44.92379" lon="6.36039">
        <ele>3895.4</ele>
        <time>2020-07-25T12:18:34Z</time>
      </trkpt>
      <trkpt lat="44.92382" lon="6.3605">
        <ele>3890.59</ele>
        <time>2020-07-25T12:18:47Z</time>
      </trkpt>
      <trkpt lat="44.92385" lon="6.36065">
        <ele>3886.27</ele>
        <time>2020-07-25T12:19:02Z</time>
      </trkpt>
      <trkpt lat="44.92385" lon="6.36065">
        <ele>3886.75</ele>
        <time>2020-07-25T12:19:03Z</time>
      </trkpt>
      <trkpt lat="44.92388" lon="6.36063">
        <ele>3882.9</ele>
        <time>2020-07-25T12:19:11Z</time>
      </trkpt>
      <trkpt lat="44.92394" lon="6.36061">
        <ele>3879.54</ele>
        <time>2020-07-25T12:19:25Z</time>
      </trkpt>
      <trkpt lat="44.92395" lon="6.36067">
        <ele>3876.17</ele>
        <time>2020-07-25T12:19:34Z</time>
      </trkpt>
      <trkpt lat="44.92398" lon="6.36076">
        <ele>3872.33</ele>
        <time>2020-07-25T12:19:49Z</time>
      </trkpt>
      <trkpt lat="44.92401" lon="6.36081">
        <ele>3868.96</ele>
        <time>2020-07-25T12:19:58Z</time>
      </trkpt>
      <trkpt lat="44.92401" lon="6.36082">
        <ele>3868.96</ele>
        <time>2020-07-25T12:19:59Z</time>
      </trkpt>
      <trkpt lat="44.92407" lon="6.36084">
        <ele>3865.6</ele>
        <time>2020-07-25T12:20:09Z</time>
      </trkpt>
      <trkpt lat="44.92412" lon="6.36081">
        <ele>3860.79</ele>
        <time>2020-07-25T12:20:24Z</time>
      </trkpt>
      <trkpt lat="44.92418" lon="6.36088">
        <ele>3855.5</ele>
        <time>2020-07-25T12:20:44Z</time>
      </trkpt>
      <trkpt lat="44.92425" lon="6.36104">
        <ele>3849.26</ele>
        <time>2020-07-25T12:21:09Z</time>
      </trkpt>
      <trkpt lat="44.9243" lon="6.36114">
        <ele>3845.89</ele>
        <time>2020-07-25T12:21:20Z</time>
      </trkpt>
      <trkpt lat="44.92435" lon="6.36112">
        <ele>3842.53</ele>
        <time>2020-07-25T12:21:32Z</time>
      </trkpt>
      <trkpt lat="44.92438" lon="6.36111">
        <ele>3842.53</ele>
        <time>2020-07-25T12:21:55Z</time>
      </trkpt>
      <trkpt lat="44.92443" lon="6.36103">
        <ele>3839.16</ele>
        <time>2020-07-25T12:22:43Z</time>
      </trkpt>
      <trkpt lat="44.92447" lon="6.36097">
        <ele>3835.32</ele>
        <time>2020-07-25T12:22:55Z</time>
      </trkpt>
      <trkpt lat="44.92454" lon="6.36086">
        <ele>3830.99</ele>
        <time>2020-07-25T12:23:10Z</time>
      </trkpt>
      <trkpt lat="44.9246" lon="6.36081">
        <ele>3827.63</ele>
        <time>2020-07-25T12:23:21Z</time>
      </trkpt>
      <trkpt lat="44.92464" lon="6.36087">
        <ele>3824.26</ele>
        <time>2020-07-25T12:23:32Z</time>
      </trkpt>
      <trkpt lat="44.92472" lon="6.36093">
        <ele>3820.42</ele>
        <time>2020-07-25T12:23:46Z</time>
      </trkpt>
      <trkpt lat="44.92475" lon="6.36101">
        <ele>3817.05</ele>
        <time>2020-07-25T12:24:10Z</time>
      </trkpt>
      <trkpt lat="44.92478" lon="6.36102">
        <ele>3813.69</ele>
        <time>2020-07-25T12:24:22Z</time>
      </trkpt>
      <trkpt lat="44.92483" lon="6.36105">
        <ele>3809.84</ele>
        <time>2020-07-25T12:24:33Z</time>
      </trkpt>
      <trkpt lat="44.92492" lon="6.36112">
        <ele>3804.55</ele>
        <time>2020-07-25T12:24:57Z</time>
      </trkpt>
      <trkpt lat="44.92494" lon="6.36116">
        <ele>3801.19</ele>
        <time>2020-07-25T12:25:10Z</time>
      </trkpt>
      <trkpt lat="44.92497" lon="6.36112">
        <ele>3797.83</ele>
        <time>2020-07-25T12:25:18Z</time>
      </trkpt>
      <trkpt lat="44.92498" lon="6.36112">
        <ele>3797.83</ele>
        <time>2020-07-25T12:25:19Z</time>
      </trkpt>
      <trkpt lat="44.92504" lon="6.361">
        <ele>3793.02</ele>
        <time>2020-07-25T12:25:40Z</time>
      </trkpt>
      <trkpt lat="44.9251" lon="6.361">
        <ele>3788.21</ele>
        <time>2020-07-25T12:25:55Z</time>
      </trkpt>
      <trkpt lat="44.92511" lon="6.361">
        <ele>3788.21</ele>
        <time>2020-07-25T12:25:56Z</time>
      </trkpt>
      <trkpt lat="44.92517" lon="6.36101">
        <ele>3784.85</ele>
        <time>2020-07-25T12:26:07Z</time>
      </trkpt>
      <trkpt lat="44.9252" lon="6.36098">
        <ele>3781.48</ele>
        <time>2020-07-25T12:26:16Z</time>
      </trkpt>
      <trkpt lat="44.92521" lon="6.36098">
        <ele>3781.48</ele>
        <time>2020-07-25T12:26:17Z</time>
      </trkpt>
      <trkpt lat="44.92525" lon="6.36104">
        <ele>3778.12</ele>
        <time>2020-07-25T12:26:27Z</time>
      </trkpt>
      <trkpt lat="44.92533" lon="6.36112">
        <ele>3771.87</ele>
        <time>2020-07-25T12:26:52Z</time>
      </trkpt>
      <trkpt lat="44.92541" lon="6.3612">
        <ele>3767.54</ele>
        <time>2020-07-25T12:27:09Z</time>
      </trkpt>
      <trkpt lat="44.92547" lon="6.36125">
        <ele>3762.26</ele>
        <time>2020-07-25T12:27:28Z</time>
      </trkpt>
      <trkpt lat="44.92552" lon="6.3612">
        <ele>3757.45</ele>
        <time>2020-07-25T12:27:58Z</time>
      </trkpt>
      <trkpt lat="44.92557" lon="6.36116">
        <ele>3754.09</ele>
        <time>2020-07-25T12:28:21Z</time>
      </trkpt>
      <trkpt lat="44.92566" lon="6.36122">
        <ele>3745.91</ele>
        <time>2020-07-25T12:28:55Z</time>
      </trkpt>
      <trkpt lat="44.92571" lon="6.36123">
        <ele>3740.63</ele>
        <time>2020-07-25T12:29:12Z</time>
      </trkpt>
      <trkpt lat="44.92578" lon="6.36126">
        <ele>3735.82</ele>
        <time>2020-07-25T12:29:27Z</time>
      </trkpt>
      <trkpt lat="44.92586" lon="6.36126">
        <ele>3731.49</ele>
        <time>2020-07-25T12:29:42Z</time>
      </trkpt>
      <trkpt lat="44.92591" lon="6.3613">
        <ele>3727.65</ele>
        <time>2020-07-25T12:29:56Z</time>
      </trkpt>
      <trkpt lat="44.92592" lon="6.3613">
        <ele>3727.65</ele>
        <time>2020-07-25T12:29:57Z</time>
      </trkpt>
      <trkpt lat="44.926" lon="6.36119">
        <ele>3722.84</ele>
        <time>2020-07-25T12:30:19Z</time>
      </trkpt>
      <trkpt lat="44.92605" lon="6.36112">
        <ele>3719.48</ele>
        <time>2020-07-25T12:30:31Z</time>
      </trkpt>
      <trkpt lat="44.92615" lon="6.36098">
        <ele>3713.23</ele>
        <time>2020-07-25T12:30:52Z</time>
      </trkpt>
      <trkpt lat="44.92623" lon="6.36093">
        <ele>3709.87</ele>
        <time>2020-07-25T12:31:03Z</time>
      </trkpt>
      <trkpt lat="44.92629" lon="6.36093">
        <ele>3706.02</ele>
        <time>2020-07-25T12:31:12Z</time>
      </trkpt>
      <trkpt lat="44.92635" lon="6.36095">
        <ele>3702.66</ele>
        <time>2020-07-25T12:31:21Z</time>
      </trkpt>
      <trkpt lat="44.92646" lon="6.36111">
        <ele>3697.85</ele>
        <time>2020-07-25T12:31:48Z</time>
      </trkpt>
      <trkpt lat="44.9265" lon="6.36118">
        <ele>3694.48</ele>
        <time>2020-07-25T12:32:00Z</time>
      </trkpt>
      <trkpt lat="44.92654" lon="6.36124">
        <ele>3691.12</ele>
        <time>2020-07-25T12:32:11Z</time>
      </trkpt>
      <trkpt lat="44.92659" lon="6.3613">
        <ele>3687.75</ele>
        <time>2020-07-25T12:32:21Z</time>
      </trkpt>
      <trkpt lat="44.9267" lon="6.36135">
        <ele>3681.03</ele>
        <time>2020-07-25T12:32:39Z</time>
      </trkpt>
      <trkpt lat="44.92676" lon="6.36139">
        <ele>3675.74</ele>
        <time>2020-07-25T12:32:52Z</time>
      </trkpt>
      <trkpt lat="44.92677" lon="6.36139">
        <ele>3675.74</ele>
        <time>2020-07-25T12:32:53Z</time>
      </trkpt>
      <trkpt lat="44.92684" lon="6.36146">
        <ele>3669.01</ele>
        <time>2020-07-25T12:33:10Z</time>
      </trkpt>
      <trkpt lat="44.92685" lon="6.36147">
        <ele>3669.01</ele>
        <time>2020-07-25T12:33:11Z</time>
      </trkpt>
      <trkpt lat="44.9269" lon="6.3615">
        <ele>3665.64</ele>
        <time>2020-07-25T12:33:21Z</time>
      </trkpt>
      <trkpt lat="44.92696" lon="6.36155">
        <ele>3661.32</ele>
        <time>2020-07-25T12:33:35Z</time>
      </trkpt>
      <trkpt lat="44.92701" lon="6.36158">
        <ele>3657.47</ele>
        <time>2020-07-25T12:33:44Z</time>
      </trkpt>
      <trkpt lat="44.92706" lon="6.36162">
        <ele>3654.11</ele>
        <time>2020-07-25T12:33:54Z</time>
      </trkpt>
      <trkpt lat="44.92711" lon="6.36165">
        <ele>3650.74</ele>
        <time>2020-07-25T12:34:04Z</time>
      </trkpt>
      <trkpt lat="44.92716" lon="6.36169">
        <ele>3646.9</ele>
        <time>2020-07-25T12:34:14Z</time>
      </trkpt>
      <trkpt lat="44.92721" lon="6.36173">
        <ele>3643.53</ele>
        <time>2020-07-25T12:34:23Z</time>
      </trkpt>
      <trkpt lat="44.92726" lon="6.36177">
        <ele>3640.17</ele>
        <time>2020-07-25T12:34:33Z</time>
      </trkpt>
      <trkpt lat="44.92731" lon="6.36177">
        <ele>3636.32</ele>
        <time>2020-07-25T12:34:43Z</time>
      </trkpt>
      <trkpt lat="44.92741" lon="6.36176">
        <ele>3631.04</ele>
        <time>2020-07-25T12:35:09Z</time>
      </trkpt>
      <trkpt lat="44.92751" lon="6.36167">
        <ele>3625.27</ele>
        <time>2020-07-25T12:35:41Z</time>
      </trkpt>
      <trkpt lat="44.92764" lon="6.36162">
        <ele>3619.5</ele>
        <time>2020-07-25T12:36:13Z</time>
      </trkpt>
      <trkpt lat="44.92765" lon="6.36163">
        <ele>3619.5</ele>
        <time>2020-07-25T12:36:33Z</time>
      </trkpt>
      <trkpt lat="44.92773" lon="6.3616">
        <ele>3615.66</ele>
        <time>2020-07-25T12:36:43Z</time>
      </trkpt>
      <trkpt lat="44.9278" lon="6.36156">
        <ele>3611.33</ele>
        <time>2020-07-25T12:36:52Z</time>
      </trkpt>
      <trkpt lat="44.92787" lon="6.36151">
        <ele>3607.48</ele>
        <time>2020-07-25T12:37:00Z</time>
      </trkpt>
      <trkpt lat="44.92799" lon="6.36152">
        <ele>3601.24</ele>
        <time>2020-07-25T12:37:14Z</time>
      </trkpt>
      <trkpt lat="44.92805" lon="6.36154">
        <ele>3596.43</ele>
        <time>2020-07-25T12:37:25Z</time>
      </trkpt>
      <trkpt lat="44.92812" lon="6.36158">
        <ele>3591.62</ele>
        <time>2020-07-25T12:37:39Z</time>
      </trkpt>
      <trkpt lat="44.92821" lon="6.36163">
        <ele>3584.89</ele>
        <time>2020-07-25T12:37:53Z</time>
      </trkpt>
      <trkpt lat="44.92825" lon="6.36165">
        <ele>3582.97</ele>
        <time>2020-07-25T12:37:58Z</time>
      </trkpt>
      <trkpt lat="44.9283" lon="6.36166">
        <ele>3579.13</ele>
        <time>2020-07-25T12:38:03Z</time>
      </trkpt>
      <trkpt lat="44.92837" lon="6.36168">
        <ele>3574.32</ele>
        <time>2020-07-25T12:38:15Z</time>
      </trkpt>
      <trkpt lat="44.92842" lon="6.36172">
        <ele>3570.95</ele>
        <time>2020-07-25T12:38:28Z</time>
      </trkpt>
      <trkpt lat="44.92847" lon="6.36174">
        <ele>3567.11</ele>
        <time>2020-07-25T12:38:38Z</time>
      </trkpt>
      <trkpt lat="44.92858" lon="6.36177">
        <ele>3560.38</ele>
        <time>2020-07-25T12:38:53Z</time>
      </trkpt>
      <trkpt lat="44.92865" lon="6.3618">
        <ele>3555.57</ele>
        <time>2020-07-25T12:39:03Z</time>
      </trkpt>
      <trkpt lat="44.9287" lon="6.36184">
        <ele>3552.21</ele>
        <time>2020-07-25T12:39:12Z</time>
      </trkpt>
      <trkpt lat="44.92877" lon="6.36181">
        <ele>3546.44</ele>
        <time>2020-07-25T12:39:32Z</time>
      </trkpt>
      <trkpt lat="44.9288" lon="6.36182">
        <ele>3543.08</ele>
        <time>2020-07-25T12:39:44Z</time>
      </trkpt>
      <trkpt lat="44.9289" lon="6.36179">
        <ele>3536.35</ele>
        <time>2020-07-25T12:40:03Z</time>
      </trkpt>
      <trkpt lat="44.92894" lon="6.36177">
        <ele>3532.98</ele>
        <time>2020-07-25T12:40:13Z</time>
      </trkpt>
      <trkpt lat="44.92899" lon="6.36176">
        <ele>3529.62</ele>
        <time>2020-07-25T12:40:25Z</time>
      </trkpt>
      <trkpt lat="44.92904" lon="6.3617">
        <ele>3524.81</ele>
        <time>2020-07-25T12:40:39Z</time>
      </trkpt>
      <trkpt lat="44.92912" lon="6.36172">
        <ele>3518.08</ele>
        <time>2020-07-25T12:41:01Z</time>
      </trkpt>
      <trkpt lat="44.92917" lon="6.36168">
        <ele>3514.72</ele>
        <time>2020-07-25T12:41:13Z</time>
      </trkpt>
      <trkpt lat="44.92922" lon="6.36171">
        <ele>3511.35</ele>
        <time>2020-07-25T12:41:23Z</time>
      </trkpt>
      <trkpt lat="44.92927" lon="6.36172">
        <ele>3505.58</ele>
        <time>2020-07-25T12:41:38Z</time>
      </trkpt>
      <trkpt lat="44.92931" lon="6.36172">
        <ele>3502.22</ele>
        <time>2020-07-25T12:41:48Z</time>
      </trkpt>
      <trkpt lat="44.92935" lon="6.36175">
        <ele>3498.86</ele>
        <time>2020-07-25T12:41:59Z</time>
      </trkpt>
      <trkpt lat="44.92941" lon="6.36174">
        <ele>3494.05</ele>
        <time>2020-07-25T12:42:14Z</time>
      </trkpt>
      <trkpt lat="44.92945" lon="6.36176">
        <ele>3490.2</ele>
        <time>2020-07-25T12:42:23Z</time>
      </trkpt>
      <trkpt lat="44.92948" lon="6.36179">
        <ele>3486.84</ele>
        <time>2020-07-25T12:42:34Z</time>
      </trkpt>
      <trkpt lat="44.92953" lon="6.3617">
        <ele>3481.07</ele>
        <time>2020-07-25T12:42:49Z</time>
      </trkpt>
      <trkpt lat="44.92959" lon="6.36172">
        <ele>3475.78</ele>
        <time>2020-07-25T12:43:15Z</time>
      </trkpt>
      <trkpt lat="44.92962" lon="6.36168">
        <ele>3472.42</ele>
        <time>2020-07-25T12:43:27Z</time>
      </trkpt>
      <trkpt lat="44.92966" lon="6.36161">
        <ele>3468.57</ele>
        <time>2020-07-25T12:43:40Z</time>
      </trkpt>
      <trkpt lat="44.92973" lon="6.36156">
        <ele>3462.33</ele>
        <time>2020-07-25T12:44:06Z</time>
      </trkpt>
      <trkpt lat="44.92976" lon="6.36165">
        <ele>3458.96</ele>
        <time>2020-07-25T12:44:21Z</time>
      </trkpt>
      <trkpt lat="44.92983" lon="6.36161">
        <ele>3452.71</ele>
        <time>2020-07-25T12:44:38Z</time>
      </trkpt>
      <trkpt lat="44.92987" lon="6.36159">
        <ele>3448.87</ele>
        <time>2020-07-25T12:44:53Z</time>
      </trkpt>
      <trkpt lat="44.92996" lon="6.36144">
        <ele>3443.1</ele>
        <time>2020-07-25T12:45:21Z</time>
      </trkpt>
      <trkpt lat="44.93006" lon="6.36133">
        <ele>3436.85</ele>
        <time>2020-07-25T12:45:43Z</time>
      </trkpt>
      <trkpt lat="44.93012" lon="6.36149">
        <ele>3431.08</ele>
        <time>2020-07-25T12:46:05Z</time>
      </trkpt>
      <trkpt lat="44.93015" lon="6.36158">
        <ele>3427.72</ele>
        <time>2020-07-25T12:46:18Z</time>
      </trkpt>
      <trkpt lat="44.93018" lon="6.36168">
        <ele>3424.35</ele>
        <time>2020-07-25T12:46:30Z</time>
      </trkpt>
      <trkpt lat="44.93021" lon="6.36175">
        <ele>3420.99</ele>
        <time>2020-07-25T12:46:38Z</time>
      </trkpt>
      <trkpt lat="44.93026" lon="6.36184">
        <ele>3415.22</ele>
        <time>2020-07-25T12:46:55Z</time>
      </trkpt>
      <trkpt lat="44.93032" lon="6.3619">
        <ele>3410.41</ele>
        <time>2020-07-25T12:47:09Z</time>
      </trkpt>
      <trkpt lat="44.93037" lon="6.36191">
        <ele>3407.05</ele>
        <time>2020-07-25T12:47:22Z</time>
      </trkpt>
      <trkpt lat="44.93043" lon="6.36196">
        <ele>3400.32</ele>
        <time>2020-07-25T12:47:44Z</time>
      </trkpt>
      <trkpt lat="44.93047" lon="6.36201">
        <ele>3396.96</ele>
        <time>2020-07-25T12:47:55Z</time>
      </trkpt>
      <trkpt lat="44.93052" lon="6.36207">
        <ele>3392.15</ele>
        <time>2020-07-25T12:48:12Z</time>
      </trkpt>
      <trkpt lat="44.93054" lon="6.36211">
        <ele>3388.78</ele>
        <time>2020-07-25T12:48:27Z</time>
      </trkpt>
      <trkpt lat="44.93058" lon="6.36214">
        <ele>3385.42</ele>
        <time>2020-07-25T12:48:40Z</time>
      </trkpt>
      <trkpt lat="44.93064" lon="6.36211">
        <ele>3382.06</ele>
        <time>2020-07-25T12:48:50Z</time>
      </trkpt>
      <trkpt lat="44.9307" lon="6.36205">
        <ele>3377.73</ele>
        <time>2020-07-25T12:49:12Z</time>
      </trkpt>
      <trkpt lat="44.93074" lon="6.36197">
        <ele>3373.4</ele>
        <time>2020-07-25T12:49:29Z</time>
      </trkpt>
      <trkpt lat="44.93079" lon="6.3621">
        <ele>3368.12</ele>
        <time>2020-07-25T12:49:57Z</time>
      </trkpt>
      <trkpt lat="44.9308" lon="6.36211">
        <ele>3368.12</ele>
        <time>2020-07-25T12:49:58Z</time>
      </trkpt>
      <trkpt lat="44.93084" lon="6.36223">
        <ele>3362.35</ele>
        <time>2020-07-25T12:50:37Z</time>
      </trkpt>
      <trkpt lat="44.93087" lon="6.36227">
        <ele>3358.98</ele>
        <time>2020-07-25T12:50:48Z</time>
      </trkpt>
      <trkpt lat="44.93091" lon="6.36229">
        <ele>3355.62</ele>
        <time>2020-07-25T12:50:59Z</time>
      </trkpt>
      <trkpt lat="44.931" lon="6.36225">
        <ele>3349.37</ele>
        <time>2020-07-25T12:51:21Z</time>
      </trkpt>
      <trkpt lat="44.93108" lon="6.36224">
        <ele>3343.12</ele>
        <time>2020-07-25T12:51:38Z</time>
      </trkpt>
      <trkpt lat="44.93114" lon="6.36222">
        <ele>3339.76</ele>
        <time>2020-07-25T12:51:47Z</time>
      </trkpt>
      <trkpt lat="44.9312" lon="6.36219">
        <ele>3336.39</ele>
        <time>2020-07-25T12:51:57Z</time>
      </trkpt>
      <trkpt lat="44.93127" lon="6.36214">
        <ele>3333.03</ele>
        <time>2020-07-25T12:52:07Z</time>
      </trkpt>
      <trkpt lat="44.93136" lon="6.36208">
        <ele>3328.7</ele>
        <time>2020-07-25T12:52:19Z</time>
      </trkpt>
      <trkpt lat="44.93144" lon="6.36209">
        <ele>3325.34</ele>
        <time>2020-07-25T12:52:28Z</time>
      </trkpt>
      <trkpt lat="44.93156" lon="6.36209">
        <ele>3321.01</ele>
        <time>2020-07-25T12:52:39Z</time>
      </trkpt>
      <trkpt lat="44.93176" lon="6.3621">
        <ele>3314.76</ele>
        <time>2020-07-25T12:52:56Z</time>
      </trkpt>
      <trkpt lat="44.93211" lon="6.36219">
        <ele>3307.07</ele>
        <time>2020-07-25T12:53:22Z</time>
      </trkpt>
      <trkpt lat="44.93236" lon="6.36222">
        <ele>3301.3</ele>
        <time>2020-07-25T12:53:43Z</time>
      </trkpt>
      <trkpt lat="44.93318" lon="6.36283">
        <ele>3277.75</ele>
        <time>2020-07-25T12:55:48Z</time>
      </trkpt>
      <trkpt lat="44.93318" lon="6.36283">
        <ele>3282.08</ele>
        <time>2020-07-25T12:55:49Z</time>
      </trkpt>
      <trkpt lat="44.9335" lon="6.36311">
        <ele>3277.27</ele>
        <time>2020-07-25T13:02:01Z</time>
      </trkpt>
      <trkpt lat="44.93516" lon="6.36479">
        <ele>3272.46</ele>
        <time>2020-07-25T13:05:05Z</time>
      </trkpt>
      <trkpt lat="44.93559" lon="6.3652">
        <ele>3269.1</ele>
        <time>2020-07-25T13:05:49Z</time>
      </trkpt>
      <trkpt lat="44.93607" lon="6.36565">
        <ele>3264.29</ele>
        <time>2020-07-25T13:06:36Z</time>
      </trkpt>
      <trkpt lat="44.93625" lon="6.36578">
        <ele>3260.93</ele>
        <time>2020-07-25T13:06:52Z</time>
      </trkpt>
      <trkpt lat="44.93646" lon="6.36609">
        <ele>3254.68</ele>
        <time>2020-07-25T13:07:14Z</time>
      </trkpt>
      <trkpt lat="44.93659" lon="6.36623">
        <ele>3251.32</ele>
        <time>2020-07-25T13:07:25Z</time>
      </trkpt>
      <trkpt lat="44.93678" lon="6.36646">
        <ele>3247.95</ele>
        <time>2020-07-25T13:07:44Z</time>
      </trkpt>
      <trkpt lat="44.93697" lon="6.36668">
        <ele>3244.59</ele>
        <time>2020-07-25T13:08:02Z</time>
      </trkpt>
      <trkpt lat="44.93725" lon="6.36699">
        <ele>3240.26</ele>
        <time>2020-07-25T13:08:41Z</time>
      </trkpt>
      <trkpt lat="44.93724" lon="6.367">
        <ele>3240.26</ele>
        <time>2020-07-25T13:09:07Z</time>
      </trkpt>
      <trkpt lat="44.93755" lon="6.3674">
        <ele>3235.45</ele>
        <time>2020-07-25T13:09:54Z</time>
      </trkpt>
      <trkpt lat="44.93765" lon="6.36755">
        <ele>3232.09</ele>
        <time>2020-07-25T13:10:06Z</time>
      </trkpt>
      <trkpt lat="44.93776" lon="6.3677">
        <ele>3228.24</ele>
        <time>2020-07-25T13:10:17Z</time>
      </trkpt>
      <trkpt lat="44.93787" lon="6.36787">
        <ele>3224.88</ele>
        <time>2020-07-25T13:10:29Z</time>
      </trkpt>
      <trkpt lat="44.93797" lon="6.36802">
        <ele>3221.52</ele>
        <time>2020-07-25T13:10:39Z</time>
      </trkpt>
      <trkpt lat="44.93842" lon="6.36864">
        <ele>3215.27</ele>
        <time>2020-07-25T13:11:26Z</time>
      </trkpt>
      <trkpt lat="44.93884" lon="6.36915">
        <ele>3209.02</ele>
        <time>2020-07-25T13:12:08Z</time>
      </trkpt>
      <trkpt lat="44.93905" lon="6.36937">
        <ele>3205.65</ele>
        <time>2020-07-25T13:12:27Z</time>
      </trkpt>
      <trkpt lat="44.93939" lon="6.36972">
        <ele>3201.33</ele>
        <time>2020-07-25T13:12:59Z</time>
      </trkpt>
      <trkpt lat="44.93957" lon="6.36996">
        <ele>3197.96</ele>
        <time>2020-07-25T13:13:18Z</time>
      </trkpt>
      <trkpt lat="44.93977" lon="6.37016">
        <ele>3194.6</ele>
        <time>2020-07-25T13:13:36Z</time>
      </trkpt>
      <trkpt lat="44.94015" lon="6.37064">
        <ele>3188.35</ele>
        <time>2020-07-25T13:14:14Z</time>
      </trkpt>
      <trkpt lat="44.94056" lon="6.37116">
        <ele>3184.98</ele>
        <time>2020-07-25T13:14:58Z</time>
      </trkpt>
      <trkpt lat="44.94058" lon="6.3712">
        <ele>3184.98</ele>
        <time>2020-07-25T13:15:01Z</time>
      </trkpt>
      <trkpt lat="44.94105" lon="6.37183">
        <ele>3181.62</ele>
        <time>2020-07-25T13:15:55Z</time>
      </trkpt>
      <trkpt lat="44.94188" lon="6.3731">
        <ele>3177.29</ele>
        <time>2020-07-25T13:17:40Z</time>
      </trkpt>
      <trkpt lat="44.94269" lon="6.37454">
        <ele>3170.08</ele>
        <time>2020-07-25T13:19:27Z</time>
      </trkpt>
      <trkpt lat="44.94302" lon="6.37518">
        <ele>3165.76</ele>
        <time>2020-07-25T13:20:14Z</time>
      </trkpt>
      <trkpt lat="44.9432" lon="6.37574">
        <ele>3159.51</ele>
        <time>2020-07-25T13:20:47Z</time>
      </trkpt>
      <trkpt lat="44.94333" lon="6.37631">
        <ele>3153.26</ele>
        <time>2020-07-25T13:21:19Z</time>
      </trkpt>
      <trkpt lat="44.94334" lon="6.37634">
        <ele>3153.26</ele>
        <time>2020-07-25T13:21:21Z</time>
      </trkpt>
      <trkpt lat="44.94343" lon="6.37666">
        <ele>3149.9</ele>
        <time>2020-07-25T13:21:39Z</time>
      </trkpt>
      <trkpt lat="44.94365" lon="6.37744">
        <ele>3144.13</ele>
        <time>2020-07-25T13:22:24Z</time>
      </trkpt>
      <trkpt lat="44.94379" lon="6.37817">
        <ele>3140.28</ele>
        <time>2020-07-25T13:23:08Z</time>
      </trkpt>
      <trkpt lat="44.94391" lon="6.37886">
        <ele>3134.52</ele>
        <time>2020-07-25T13:23:50Z</time>
      </trkpt>
      <trkpt lat="44.94391" lon="6.37887">
        <ele>3134.52</ele>
        <time>2020-07-25T13:23:51Z</time>
      </trkpt>
      <trkpt lat="44.94396" lon="6.37921">
        <ele>3130.19</ele>
        <time>2020-07-25T13:24:21Z</time>
      </trkpt>
      <trkpt lat="44.94401" lon="6.37935">
        <ele>3128.27</ele>
        <time>2020-07-25T13:24:38Z</time>
      </trkpt>
      <trkpt lat="44.94412" lon="6.37955">
        <ele>3124.9</ele>
        <time>2020-07-25T13:24:54Z</time>
      </trkpt>
      <trkpt lat="44.94423" lon="6.37979">
        <ele>3121.06</ele>
        <time>2020-07-25T13:25:09Z</time>
      </trkpt>
      <trkpt lat="44.94433" lon="6.38001">
        <ele>3117.69</ele>
        <time>2020-07-25T13:25:24Z</time>
      </trkpt>
      <trkpt lat="44.9444" lon="6.38023">
        <ele>3113.37</ele>
        <time>2020-07-25T13:25:48Z</time>
      </trkpt>
      <trkpt lat="44.94452" lon="6.38039">
        <ele>3109.04</ele>
        <time>2020-07-25T13:26:18Z</time>
      </trkpt>
      <trkpt lat="44.94469" lon="6.38066">
        <ele>3102.31</ele>
        <time>2020-07-25T13:26:46Z</time>
      </trkpt>
      <trkpt lat="44.9448" lon="6.3808">
        <ele>3098.95</ele>
        <time>2020-07-25T13:26:57Z</time>
      </trkpt>
      <trkpt lat="44.94488" lon="6.3809">
        <ele>3095.58</ele>
        <time>2020-07-25T13:27:05Z</time>
      </trkpt>
      <trkpt lat="44.945" lon="6.38104">
        <ele>3091.74</ele>
        <time>2020-07-25T13:27:17Z</time>
      </trkpt>
      <trkpt lat="44.94528" lon="6.38138">
        <ele>3085.49</ele>
        <time>2020-07-25T13:27:43Z</time>
      </trkpt>
      <trkpt lat="44.94544" lon="6.38177">
        <ele>3082.12</ele>
        <time>2020-07-25T13:28:07Z</time>
      </trkpt>
      <trkpt lat="44.94554" lon="6.382">
        <ele>3078.76</ele>
        <time>2020-07-25T13:28:21Z</time>
      </trkpt>
      <trkpt lat="44.94563" lon="6.38228">
        <ele>3075.4</ele>
        <time>2020-07-25T13:28:36Z</time>
      </trkpt>
      <trkpt lat="44.94576" lon="6.38266">
        <ele>3071.07</ele>
        <time>2020-07-25T13:28:57Z</time>
      </trkpt>
      <trkpt lat="44.94586" lon="6.38302">
        <ele>3067.7</ele>
        <time>2020-07-25T13:29:18Z</time>
      </trkpt>
      <trkpt lat="44.94614" lon="6.384">
        <ele>3063.38</ele>
        <time>2020-07-25T13:30:18Z</time>
      </trkpt>
      <trkpt lat="44.94644" lon="6.38488">
        <ele>3058.57</ele>
        <time>2020-07-25T13:31:17Z</time>
      </trkpt>
      <trkpt lat="44.94645" lon="6.38495">
        <ele>3059.05</ele>
        <time>2020-07-25T13:31:21Z</time>
      </trkpt>
      <trkpt lat="44.94658" lon="6.38541">
        <ele>3055.69</ele>
        <time>2020-07-25T13:31:48Z</time>
      </trkpt>
      <trkpt lat="44.94658" lon="6.38544">
        <ele>3055.69</ele>
        <time>2020-07-25T13:31:50Z</time>
      </trkpt>
      <trkpt lat="44.94671" lon="6.38578">
        <ele>3051.84</ele>
        <time>2020-07-25T13:32:12Z</time>
      </trkpt>
      <trkpt lat="44.94679" lon="6.38612">
        <ele>3049.44</ele>
        <time>2020-07-25T13:32:32Z</time>
      </trkpt>
      <trkpt lat="44.94686" lon="6.38646">
        <ele>3045.59</ele>
        <time>2020-07-25T13:32:50Z</time>
      </trkpt>
      <trkpt lat="44.94701" lon="6.38724">
        <ele>3040.31</ele>
        <time>2020-07-25T13:33:32Z</time>
      </trkpt>
      <trkpt lat="44.94721" lon="6.38817">
        <ele>3035.98</ele>
        <time>2020-07-25T13:34:25Z</time>
      </trkpt>
      <trkpt lat="44.94748" lon="6.38928">
        <ele>3031.66</ele>
        <time>2020-07-25T13:35:33Z</time>
      </trkpt>
      <trkpt lat="44.94762" lon="6.39005">
        <ele>3028.29</ele>
        <time>2020-07-25T13:36:20Z</time>
      </trkpt>
      <trkpt lat="44.94766" lon="6.39065">
        <ele>3024.93</ele>
        <time>2020-07-25T13:36:52Z</time>
      </trkpt>
      <trkpt lat="44.94782" lon="6.39123">
        <ele>3020.12</ele>
        <time>2020-07-25T13:37:28Z</time>
      </trkpt>
      <trkpt lat="44.94794" lon="6.39186">
        <ele>3013.87</ele>
        <time>2020-07-25T13:38:03Z</time>
      </trkpt>
      <trkpt lat="44.94794" lon="6.39228">
        <ele>3008.1</ele>
        <time>2020-07-25T13:38:24Z</time>
      </trkpt>
      <trkpt lat="44.94797" lon="6.39302">
        <ele>2999.45</ele>
        <time>2020-07-25T13:39:02Z</time>
      </trkpt>
      <trkpt lat="44.94799" lon="6.39395">
        <ele>2992.72</ele>
        <time>2020-07-25T13:39:50Z</time>
      </trkpt>
      <trkpt lat="44.94789" lon="6.3949">
        <ele>2986.95</ele>
        <time>2020-07-25T13:40:51Z</time>
      </trkpt>
      <trkpt lat="44.94779" lon="6.39562">
        <ele>2981.19</ele>
        <time>2020-07-25T13:44:03Z</time>
      </trkpt>
      <trkpt lat="44.94779" lon="6.39565">
        <ele>2981.19</ele>
        <time>2020-07-25T13:44:05Z</time>
      </trkpt>
      <trkpt lat="44.94775" lon="6.39601">
        <ele>2977.34</ele>
        <time>2020-07-25T13:44:28Z</time>
      </trkpt>
      <trkpt lat="44.94775" lon="6.39604">
        <ele>2977.34</ele>
        <time>2020-07-25T13:44:29Z</time>
      </trkpt>
      <trkpt lat="44.94769" lon="6.39645">
        <ele>2971.57</ele>
        <time>2020-07-25T13:44:54Z</time>
      </trkpt>
      <trkpt lat="44.9476" lon="6.39679">
        <ele>2966.77</ele>
        <time>2020-07-25T13:45:35Z</time>
      </trkpt>
      <trkpt lat="44.94756" lon="6.39699">
        <ele>2962.92</ele>
        <time>2020-07-25T13:45:50Z</time>
      </trkpt>
      <trkpt lat="44.94754" lon="6.39728">
        <ele>2958.59</ele>
        <time>2020-07-25T13:46:05Z</time>
      </trkpt>
      <trkpt lat="44.94749" lon="6.39746">
        <ele>2953.31</ele>
        <time>2020-07-25T13:46:25Z</time>
      </trkpt>
      <trkpt lat="44.94746" lon="6.39756">
        <ele>2949.46</ele>
        <time>2020-07-25T13:46:34Z</time>
      </trkpt>
      <trkpt lat="44.94741" lon="6.39779">
        <ele>2943.21</ele>
        <time>2020-07-25T13:46:58Z</time>
      </trkpt>
      <trkpt lat="44.94731" lon="6.39799">
        <ele>2938.89</ele>
        <time>2020-07-25T13:47:24Z</time>
      </trkpt>
      <trkpt lat="44.94721" lon="6.39811">
        <ele>2934.56</ele>
        <time>2020-07-25T13:47:38Z</time>
      </trkpt>
      <trkpt lat="44.94721" lon="6.39833">
        <ele>2931.2</ele>
        <time>2020-07-25T13:47:51Z</time>
      </trkpt>
      <trkpt lat="44.94721" lon="6.39835">
        <ele>2931.2</ele>
        <time>2020-07-25T13:47:52Z</time>
      </trkpt>
      <trkpt lat="44.94726" lon="6.3986">
        <ele>2925.43</ele>
        <time>2020-07-25T13:48:22Z</time>
      </trkpt>
      <trkpt lat="44.94725" lon="6.39871">
        <ele>2922.06</ele>
        <time>2020-07-25T13:48:34Z</time>
      </trkpt>
      <trkpt lat="44.94724" lon="6.39886">
        <ele>2917.74</ele>
        <time>2020-07-25T13:48:46Z</time>
      </trkpt>
      <trkpt lat="44.94721" lon="6.39902">
        <ele>2912.93</ele>
        <time>2020-07-25T13:48:57Z</time>
      </trkpt>
      <trkpt lat="44.94713" lon="6.39919">
        <ele>2908.61</ele>
        <time>2020-07-25T13:49:09Z</time>
      </trkpt>
      <trkpt lat="44.94706" lon="6.39948">
        <ele>2904.76</ele>
        <time>2020-07-25T13:49:25Z</time>
      </trkpt>
      <trkpt lat="44.94705" lon="6.39951">
        <ele>2904.76</ele>
        <time>2020-07-25T13:49:28Z</time>
      </trkpt>
      <trkpt lat="44.94685" lon="6.40011">
        <ele>2896.11</ele>
        <time>2020-07-25T13:50:07Z</time>
      </trkpt>
      <trkpt lat="44.94666" lon="6.40041">
        <ele>2891.3</ele>
        <time>2020-07-25T13:50:37Z</time>
      </trkpt>
      <trkpt lat="44.9466" lon="6.40055">
        <ele>2887.94</ele>
        <time>2020-07-25T13:50:46Z</time>
      </trkpt>
      <trkpt lat="44.94646" lon="6.40083">
        <ele>2882.65</ele>
        <time>2020-07-25T13:51:06Z</time>
      </trkpt>
      <trkpt lat="44.94638" lon="6.40102">
        <ele>2878.81</ele>
        <time>2020-07-25T13:51:17Z</time>
      </trkpt>
      <trkpt lat="44.94632" lon="6.40124">
        <ele>2875.44</ele>
        <time>2020-07-25T13:51:30Z</time>
      </trkpt>
      <trkpt lat="44.94616" lon="6.40172">
        <ele>2868.71</ele>
        <time>2020-07-25T13:51:57Z</time>
      </trkpt>
      <trkpt lat="44.94606" lon="6.40229">
        <ele>2862.46</ele>
        <time>2020-07-25T13:52:31Z</time>
      </trkpt>
      <trkpt lat="44.94609" lon="6.40258">
        <ele>2859.1</ele>
        <time>2020-07-25T13:52:48Z</time>
      </trkpt>
      <trkpt lat="44.94598" lon="6.40307">
        <ele>2854.77</ele>
        <time>2020-07-25T13:53:21Z</time>
      </trkpt>
      <trkpt lat="44.94588" lon="6.40333">
        <ele>2851.41</ele>
        <time>2020-07-25T13:53:38Z</time>
      </trkpt>
      <trkpt lat="44.94569" lon="6.40375">
        <ele>2845.16</ele>
        <time>2020-07-25T13:54:06Z</time>
      </trkpt>
      <trkpt lat="44.94558" lon="6.40405">
        <ele>2841.31</ele>
        <time>2020-07-25T13:54:24Z</time>
      </trkpt>
      <trkpt lat="44.94552" lon="6.40412">
        <ele>2839.87</ele>
        <time>2020-07-25T13:54:30Z</time>
      </trkpt>
      <trkpt lat="44.94535" lon="6.40433">
        <ele>2833.14</ele>
        <time>2020-07-25T13:54:48Z</time>
      </trkpt>
      <trkpt lat="44.94517" lon="6.4045">
        <ele>2825.45</ele>
        <time>2020-07-25T13:55:05Z</time>
      </trkpt>
      <trkpt lat="44.94514" lon="6.40452">
        <ele>2825.45</ele>
        <time>2020-07-25T13:55:07Z</time>
      </trkpt>
      <trkpt lat="44.94507" lon="6.40457">
        <ele>2821.61</ele>
        <time>2020-07-25T13:55:13Z</time>
      </trkpt>
      <trkpt lat="44.94493" lon="6.40466">
        <ele>2817.76</ele>
        <time>2020-07-25T13:55:24Z</time>
      </trkpt>
      <trkpt lat="44.94457" lon="6.40503">
        <ele>2814.4</ele>
        <time>2020-07-25T13:56:07Z</time>
      </trkpt>
      <trkpt lat="44.94439" lon="6.40518">
        <ele>2804.78</ele>
        <time>2020-07-25T13:59:49Z</time>
      </trkpt>
      <trkpt lat="44.94439" lon="6.40519">
        <ele>2811.03</ele>
        <time>2020-07-25T13:59:50Z</time>
      </trkpt>
      <trkpt lat="44.94442" lon="6.40555">
        <ele>2814.4</ele>
        <time>2020-07-25T14:11:36Z</time>
      </trkpt>
      <trkpt lat="44.9444" lon="6.4056">
        <ele>2814.4</ele>
        <time>2020-07-25T14:11:40Z</time>
      </trkpt>
      <trkpt lat="44.94415" lon="6.40592">
        <ele>2810.55</ele>
        <time>2020-07-25T14:12:25Z</time>
      </trkpt>
      <trkpt lat="44.94403" lon="6.40601">
        <ele>2807.19</ele>
        <time>2020-07-25T14:12:57Z</time>
      </trkpt>
      <trkpt lat="44.9439" lon="6.40629">
        <ele>2801.42</ele>
        <time>2020-07-25T14:13:20Z</time>
      </trkpt>
      <trkpt lat="44.94389" lon="6.40633">
        <ele>2801.42</ele>
        <time>2020-07-25T14:13:23Z</time>
      </trkpt>
      <trkpt lat="44.94381" lon="6.40655">
        <ele>2795.17</ele>
        <time>2020-07-25T14:13:43Z</time>
      </trkpt>
      <trkpt lat="44.9438" lon="6.40655">
        <ele>2795.17</ele>
        <time>2020-07-25T14:13:44Z</time>
      </trkpt>
      <trkpt lat="44.94379" lon="6.40663">
        <ele>2793.25</ele>
        <time>2020-07-25T14:13:52Z</time>
      </trkpt>
      <trkpt lat="44.94379" lon="6.40674">
        <ele>2789.88</ele>
        <time>2020-07-25T14:14:00Z</time>
      </trkpt>
      <trkpt lat="44.94369" lon="6.4071">
        <ele>2785.08</ele>
        <time>2020-07-25T14:14:24Z</time>
      </trkpt>
      <trkpt lat="44.94366" lon="6.40727">
        <ele>2781.71</ele>
        <time>2020-07-25T14:14:36Z</time>
      </trkpt>
      <trkpt lat="44.94365" lon="6.4073">
        <ele>2781.71</ele>
        <time>2020-07-25T14:14:39Z</time>
      </trkpt>
      <trkpt lat="44.94341" lon="6.40767">
        <ele>2774.5</ele>
        <time>2020-07-25T14:15:16Z</time>
      </trkpt>
      <trkpt lat="44.94335" lon="6.40778">
        <ele>2770.18</ele>
        <time>2020-07-25T14:15:27Z</time>
      </trkpt>
      <trkpt lat="44.94328" lon="6.40789">
        <ele>2765.37</ele>
        <time>2020-07-25T14:15:38Z</time>
      </trkpt>
      <trkpt lat="44.94318" lon="6.40788">
        <ele>2761.04</ele>
        <time>2020-07-25T14:15:53Z</time>
      </trkpt>
      <trkpt lat="44.943" lon="6.40808">
        <ele>2754.8</ele>
        <time>2020-07-25T14:16:19Z</time>
      </trkpt>
      <trkpt lat="44.94284" lon="6.40815">
        <ele>2748.07</ele>
        <time>2020-07-25T14:16:35Z</time>
      </trkpt>
      <trkpt lat="44.94282" lon="6.40815">
        <ele>2750.47</ele>
        <time>2020-07-25T14:16:36Z</time>
      </trkpt>
      <trkpt lat="44.94277" lon="6.40821">
        <ele>2746.14</ele>
        <time>2020-07-25T14:16:41Z</time>
      </trkpt>
      <trkpt lat="44.94267" lon="6.40834">
        <ele>2740.86</ele>
        <time>2020-07-25T14:16:55Z</time>
      </trkpt>
      <trkpt lat="44.94267" lon="6.40835">
        <ele>2743.26</ele>
        <time>2020-07-25T14:16:56Z</time>
      </trkpt>
      <trkpt lat="44.94261" lon="6.40836">
        <ele>2739.89</ele>
        <time>2020-07-25T14:17:01Z</time>
      </trkpt>
      <trkpt lat="44.94243" lon="6.40846">
        <ele>2736.05</ele>
        <time>2020-07-25T14:17:16Z</time>
      </trkpt>
      <trkpt lat="44.94229" lon="6.40848">
        <ele>2732.68</ele>
        <time>2020-07-25T14:17:27Z</time>
      </trkpt>
      <trkpt lat="44.94213" lon="6.40867">
        <ele>2728.84</ele>
        <time>2020-07-25T14:17:43Z</time>
      </trkpt>
      <trkpt lat="44.94203" lon="6.40875">
        <ele>2725.48</ele>
        <time>2020-07-25T14:17:54Z</time>
      </trkpt>
      <trkpt lat="44.94195" lon="6.40879">
        <ele>2722.11</ele>
        <time>2020-07-25T14:18:02Z</time>
      </trkpt>
      <trkpt lat="44.94191" lon="6.40881">
        <ele>2723.07</ele>
        <time>2020-07-25T14:18:06Z</time>
      </trkpt>
      <trkpt lat="44.9418" lon="6.40886">
        <ele>2718.27</ele>
        <time>2020-07-25T14:18:15Z</time>
      </trkpt>
      <trkpt lat="44.94157" lon="6.409">
        <ele>2711.54</ele>
        <time>2020-07-25T14:18:41Z</time>
      </trkpt>
      <trkpt lat="44.94145" lon="6.40906">
        <ele>2708.17</ele>
        <time>2020-07-25T14:18:54Z</time>
      </trkpt>
      <trkpt lat="44.94136" lon="6.40923">
        <ele>2704.81</ele>
        <time>2020-07-25T14:19:06Z</time>
      </trkpt>
      <trkpt lat="44.94135" lon="6.40924">
        <ele>2704.81</ele>
        <time>2020-07-25T14:19:07Z</time>
      </trkpt>
      <trkpt lat="44.94122" lon="6.40946">
        <ele>2699.04</ele>
        <time>2020-07-25T14:19:26Z</time>
      </trkpt>
      <trkpt lat="44.94117" lon="6.40958">
        <ele>2694.71</ele>
        <time>2020-07-25T14:19:38Z</time>
      </trkpt>
      <trkpt lat="44.94108" lon="6.40972">
        <ele>2690.87</ele>
        <time>2020-07-25T14:19:51Z</time>
      </trkpt>
      <trkpt lat="44.94098" lon="6.40979">
        <ele>2687.02</ele>
        <time>2020-07-25T14:20:03Z</time>
      </trkpt>
      <trkpt lat="44.94087" lon="6.40994">
        <ele>2682.7</ele>
        <time>2020-07-25T14:20:15Z</time>
      </trkpt>
      <trkpt lat="44.94072" lon="6.41002">
        <ele>2679.33</ele>
        <time>2020-07-25T14:20:27Z</time>
      </trkpt>
      <trkpt lat="44.94055" lon="6.41028">
        <ele>2675.49</ele>
        <time>2020-07-25T14:20:48Z</time>
      </trkpt>
      <trkpt lat="44.94041" lon="6.41045">
        <ele>2669.24</ele>
        <time>2020-07-25T14:21:07Z</time>
      </trkpt>
      <trkpt lat="44.94041" lon="6.41044">
        <ele>2669.24</ele>
        <time>2020-07-25T14:21:08Z</time>
      </trkpt>
      <trkpt lat="44.94029" lon="6.41063">
        <ele>2664.43</ele>
        <time>2020-07-25T14:21:23Z</time>
      </trkpt>
      <trkpt lat="44.94019" lon="6.41072">
        <ele>2664.43</ele>
        <time>2020-07-25T14:21:31Z</time>
      </trkpt>
      <trkpt lat="44.94017" lon="6.41077">
        <ele>2662.51</ele>
        <time>2020-07-25T14:21:36Z</time>
      </trkpt>
      <trkpt lat="44.94015" lon="6.41082">
        <ele>2662.51</ele>
        <time>2020-07-25T14:21:39Z</time>
      </trkpt>
      <trkpt lat="44.94003" lon="6.41084">
        <ele>2657.7</ele>
        <time>2020-07-25T14:21:52Z</time>
      </trkpt>
      <trkpt lat="44.93986" lon="6.41093">
        <ele>2651.45</ele>
        <time>2020-07-25T14:22:13Z</time>
      </trkpt>
      <trkpt lat="44.9398" lon="6.41094">
        <ele>2648.09</ele>
        <time>2020-07-25T14:22:21Z</time>
      </trkpt>
      <trkpt lat="44.93971" lon="6.41093">
        <ele>2644.72</ele>
        <time>2020-07-25T14:22:36Z</time>
      </trkpt>
      <trkpt lat="44.93958" lon="6.41096">
        <ele>2639.44</ele>
        <time>2020-07-25T14:22:56Z</time>
      </trkpt>
      <trkpt lat="44.93952" lon="6.41099">
        <ele>2635.59</ele>
        <time>2020-07-25T14:23:08Z</time>
      </trkpt>
      <trkpt lat="44.93942" lon="6.41091">
        <ele>2628.38</ele>
        <time>2020-07-25T14:23:34Z</time>
      </trkpt>
      <trkpt lat="44.93941" lon="6.41092">
        <ele>2628.38</ele>
        <time>2020-07-25T14:23:35Z</time>
      </trkpt>
      <trkpt lat="44.93934" lon="6.41095">
        <ele>2624.54</ele>
        <time>2020-07-25T14:23:45Z</time>
      </trkpt>
      <trkpt lat="44.93925" lon="6.41096">
        <ele>2619.73</ele>
        <time>2020-07-25T14:23:58Z</time>
      </trkpt>
      <trkpt lat="44.93916" lon="6.41101">
        <ele>2616.37</ele>
        <time>2020-07-25T14:24:09Z</time>
      </trkpt>
      <trkpt lat="44.93907" lon="6.41104">
        <ele>2611.56</ele>
        <time>2020-07-25T14:24:19Z</time>
      </trkpt>
      <trkpt lat="44.93897" lon="6.41107">
        <ele>2607.71</ele>
        <time>2020-07-25T14:24:49Z</time>
      </trkpt>
      <trkpt lat="44.93894" lon="6.41092">
        <ele>2601.46</ele>
        <time>2020-07-25T14:25:08Z</time>
      </trkpt>
      <trkpt lat="44.93883" lon="6.41088">
        <ele>2596.66</ele>
        <time>2020-07-25T14:25:27Z</time>
      </trkpt>
      <trkpt lat="44.93876" lon="6.41105">
        <ele>2588.49</ele>
        <time>2020-07-25T14:25:52Z</time>
      </trkpt>
      <trkpt lat="44.93876" lon="6.41106">
        <ele>2588.49</ele>
        <time>2020-07-25T14:25:53Z</time>
      </trkpt>
      <trkpt lat="44.93871" lon="6.41109">
        <ele>2584.64</ele>
        <time>2020-07-25T14:26:10Z</time>
      </trkpt>
      <trkpt lat="44.93867" lon="6.41132">
        <ele>2580.32</ele>
        <time>2020-07-25T14:26:28Z</time>
      </trkpt>
      <trkpt lat="44.93862" lon="6.41141">
        <ele>2580.32</ele>
        <time>2020-07-25T14:26:34Z</time>
      </trkpt>
      <trkpt lat="44.93811" lon="6.41149">
        <ele>2574.07</ele>
        <time>2020-07-25T14:27:30Z</time>
      </trkpt>
      <trkpt lat="44.93803" lon="6.41144">
        <ele>2569.74</ele>
        <time>2020-07-25T14:27:42Z</time>
      </trkpt>
      <trkpt lat="44.93801" lon="6.41145">
        <ele>2569.74</ele>
        <time>2020-07-25T14:27:45Z</time>
      </trkpt>
      <trkpt lat="44.93788" lon="6.41148">
        <ele>2565.9</ele>
        <time>2020-07-25T14:27:56Z</time>
      </trkpt>
      <trkpt lat="44.93766" lon="6.41146">
        <ele>2562.53</ele>
        <time>2020-07-25T14:28:12Z</time>
      </trkpt>
      <trkpt lat="44.93737" lon="6.41154">
        <ele>2546.19</ele>
        <time>2020-07-25T15:13:41Z</time>
      </trkpt>
      <trkpt lat="44.93737" lon="6.41154">
        <ele>2551.48</ele>
        <time>2020-07-25T15:13:43Z</time>
      </trkpt>
      <trkpt lat="44.93791" lon="6.41123">
        <ele>2545.23</ele>
        <time>2020-07-25T15:32:09Z</time>
      </trkpt>
      <trkpt lat="44.93802" lon="6.41115">
        <ele>2541.38</ele>
        <time>2020-07-25T15:32:42Z</time>
      </trkpt>
      <trkpt lat="44.93806" lon="6.41107">
        <ele>2538.02</ele>
        <time>2020-07-25T15:32:50Z</time>
      </trkpt>
      <trkpt lat="44.93798" lon="6.41104">
        <ele>2534.17</ele>
        <time>2020-07-25T15:33:02Z</time>
      </trkpt>
      <trkpt lat="44.93776" lon="6.41102">
        <ele>2529.37</ele>
        <time>2020-07-25T15:34:03Z</time>
      </trkpt>
      <trkpt lat="44.93762" lon="6.41105">
        <ele>2525.04</ele>
        <time>2020-07-25T15:34:17Z</time>
      </trkpt>
      <trkpt lat="44.93751" lon="6.411">
        <ele>2519.27</ele>
        <time>2020-07-25T15:34:35Z</time>
      </trkpt>
      <trkpt lat="44.9374" lon="6.41097">
        <ele>2515.91</ele>
        <time>2020-07-25T15:34:44Z</time>
      </trkpt>
      <trkpt lat="44.93725" lon="6.41099">
        <ele>2512.54</ele>
        <time>2020-07-25T15:34:57Z</time>
      </trkpt>
      <trkpt lat="44.93701" lon="6.41102">
        <ele>2508.22</ele>
        <time>2020-07-25T15:35:20Z</time>
      </trkpt>
      <trkpt lat="44.937" lon="6.41104">
        <ele>2508.22</ele>
        <time>2020-07-25T15:35:21Z</time>
      </trkpt>
      <trkpt lat="44.93692" lon="6.4112">
        <ele>2504.37</ele>
        <time>2020-07-25T15:35:33Z</time>
      </trkpt>
      <trkpt lat="44.9369" lon="6.41137">
        <ele>2505.33</ele>
        <time>2020-07-25T15:35:43Z</time>
      </trkpt>
      <trkpt lat="44.93692" lon="6.41149">
        <ele>2501.97</ele>
        <time>2020-07-25T15:36:02Z</time>
      </trkpt>
      <trkpt lat="44.93689" lon="6.41163">
        <ele>2497.16</ele>
        <time>2020-07-25T15:36:13Z</time>
      </trkpt>
      <trkpt lat="44.93687" lon="6.41184">
        <ele>2493.8</ele>
        <time>2020-07-25T15:36:25Z</time>
      </trkpt>
      <trkpt lat="44.93684" lon="6.41204">
        <ele>2489.47</ele>
        <time>2020-07-25T15:36:39Z</time>
      </trkpt>
      <trkpt lat="44.9368" lon="6.41224">
        <ele>2484.66</ele>
        <time>2020-07-25T15:36:56Z</time>
      </trkpt>
      <trkpt lat="44.93677" lon="6.41228">
        <ele>2483.22</ele>
        <time>2020-07-25T15:37:01Z</time>
      </trkpt>
      <trkpt lat="44.93669" lon="6.41205">
        <ele>2478.9</ele>
        <time>2020-07-25T15:37:19Z</time>
      </trkpt>
      <trkpt lat="44.93668" lon="6.41218">
        <ele>2475.53</ele>
        <time>2020-07-25T15:37:31Z</time>
      </trkpt>
      <trkpt lat="44.93667" lon="6.41219">
        <ele>2475.53</ele>
        <time>2020-07-25T15:37:32Z</time>
      </trkpt>
      <trkpt lat="44.93659" lon="6.41214">
        <ele>2471.21</ele>
        <time>2020-07-25T15:37:47Z</time>
      </trkpt>
      <trkpt lat="44.93651" lon="6.41192">
        <ele>2467.36</ele>
        <time>2020-07-25T15:38:01Z</time>
      </trkpt>
      <trkpt lat="44.93626" lon="6.41184">
        <ele>2463.04</ele>
        <time>2020-07-25T15:38:22Z</time>
      </trkpt>
      <trkpt lat="44.93598" lon="6.41216">
        <ele>2459.19</ele>
        <time>2020-07-25T15:38:48Z</time>
      </trkpt>
      <trkpt lat="44.93522" lon="6.41266">
        <ele>2453.9</ele>
        <time>2020-07-25T15:39:52Z</time>
      </trkpt>
      <trkpt lat="44.93376" lon="6.41261">
        <ele>2449.1</ele>
        <time>2020-07-25T15:41:56Z</time>
      </trkpt>
      <trkpt lat="44.93362" lon="6.41267">
        <ele>2449.1</ele>
        <time>2020-07-25T15:42:09Z</time>
      </trkpt>
      <trkpt lat="44.93353" lon="6.41267">
        <ele>2449.1</ele>
        <time>2020-07-25T15:42:20Z</time>
      </trkpt>
      <trkpt lat="44.93315" lon="6.41263">
        <ele>2444.77</ele>
        <time>2020-07-25T15:42:54Z</time>
      </trkpt>
      <trkpt lat="44.93314" lon="6.41263">
        <ele>2444.77</ele>
        <time>2020-07-25T15:42:55Z</time>
      </trkpt>
      <trkpt lat="44.93279" lon="6.41276">
        <ele>2439</ele>
        <time>2020-07-25T15:43:27Z</time>
      </trkpt>
      <trkpt lat="44.93259" lon="6.41271">
        <ele>2435.64</ele>
        <time>2020-07-25T15:43:45Z</time>
      </trkpt>
      <trkpt lat="44.93248" lon="6.41268">
        <ele>2431.79</ele>
        <time>2020-07-25T15:43:57Z</time>
      </trkpt>
      <trkpt lat="44.93249" lon="6.41261">
        <ele>2430.35</ele>
        <time>2020-07-25T15:44:03Z</time>
      </trkpt>
      <trkpt lat="44.9326" lon="6.4125">
        <ele>2426.5</ele>
        <time>2020-07-25T15:44:16Z</time>
      </trkpt>
      <trkpt lat="44.93256" lon="6.41241">
        <ele>2420.74</ele>
        <time>2020-07-25T15:44:39Z</time>
      </trkpt>
      <trkpt lat="44.93254" lon="6.41232">
        <ele>2417.37</ele>
        <time>2020-07-25T15:44:50Z</time>
      </trkpt>
      <trkpt lat="44.93261" lon="6.41221">
        <ele>2413.53</ele>
        <time>2020-07-25T15:45:06Z</time>
      </trkpt>
      <trkpt lat="44.93268" lon="6.41213">
        <ele>2410.16</ele>
        <time>2020-07-25T15:45:16Z</time>
      </trkpt>
      <trkpt lat="44.93251" lon="6.41212">
        <ele>2404.39</ele>
        <time>2020-07-25T15:45:40Z</time>
      </trkpt>
      <trkpt lat="44.93241" lon="6.41214">
        <ele>2401.99</ele>
        <time>2020-07-25T15:45:54Z</time>
      </trkpt>
      <trkpt lat="44.93226" lon="6.41217">
        <ele>2397.67</ele>
        <time>2020-07-25T15:46:08Z</time>
      </trkpt>
      <trkpt lat="44.93217" lon="6.41223">
        <ele>2392.86</ele>
        <time>2020-07-25T15:46:23Z</time>
      </trkpt>
      <trkpt lat="44.9321" lon="6.41222">
        <ele>2389.49</ele>
        <time>2020-07-25T15:46:33Z</time>
      </trkpt>
      <trkpt lat="44.93209" lon="6.41222">
        <ele>2389.49</ele>
        <time>2020-07-25T15:46:34Z</time>
      </trkpt>
      <trkpt lat="44.93199" lon="6.41213">
        <ele>2382.76</ele>
        <time>2020-07-25T15:47:01Z</time>
      </trkpt>
      <trkpt lat="44.9318" lon="6.41214">
        <ele>2379.4</ele>
        <time>2020-07-25T15:47:17Z</time>
      </trkpt>
      <trkpt lat="44.93188" lon="6.4118">
        <ele>2375.07</ele>
        <time>2020-07-25T15:47:43Z</time>
      </trkpt>
      <trkpt lat="44.93191" lon="6.41173">
        <ele>2371.71</ele>
        <time>2020-07-25T15:47:53Z</time>
      </trkpt>
      <trkpt lat="44.93216" lon="6.41138">
        <ele>2366.9</ele>
        <time>2020-07-25T15:48:19Z</time>
      </trkpt>
      <trkpt lat="44.9321" lon="6.41123">
        <ele>2363.54</ele>
        <time>2020-07-25T15:48:34Z</time>
      </trkpt>
      <trkpt lat="44.93209" lon="6.41119">
        <ele>2363.54</ele>
        <time>2020-07-25T15:48:37Z</time>
      </trkpt>
      <trkpt lat="44.93208" lon="6.41093">
        <ele>2358.73</ele>
        <time>2020-07-25T15:48:54Z</time>
      </trkpt>
      <trkpt lat="44.93228" lon="6.41101">
        <ele>2354.89</ele>
        <time>2020-07-25T15:49:12Z</time>
      </trkpt>
      <trkpt lat="44.9323" lon="6.41085">
        <ele>2350.08</ele>
        <time>2020-07-25T15:49:30Z</time>
      </trkpt>
      <trkpt lat="44.93242" lon="6.41064">
        <ele>2343.83</ele>
        <time>2020-07-25T15:49:56Z</time>
      </trkpt>
      <trkpt lat="44.9325" lon="6.41055">
        <ele>2339.02</ele>
        <time>2020-07-25T15:50:22Z</time>
      </trkpt>
      <trkpt lat="44.93227" lon="6.41046">
        <ele>2330.85</ele>
        <time>2020-07-25T15:50:48Z</time>
      </trkpt>
      <trkpt lat="44.93231" lon="6.4104">
        <ele>2327.49</ele>
        <time>2020-07-25T15:50:59Z</time>
      </trkpt>
      <trkpt lat="44.93239" lon="6.41025">
        <ele>2321.72</ele>
        <time>2020-07-25T15:51:18Z</time>
      </trkpt>
      <trkpt lat="44.93227" lon="6.41022">
        <ele>2318.36</ele>
        <time>2020-07-25T15:51:44Z</time>
      </trkpt>
      <trkpt lat="44.93223" lon="6.41026">
        <ele>2316.91</ele>
        <time>2020-07-25T15:51:50Z</time>
      </trkpt>
      <trkpt lat="44.93202" lon="6.41025">
        <ele>2311.63</ele>
        <time>2020-07-25T15:52:10Z</time>
      </trkpt>
      <trkpt lat="44.93187" lon="6.41031">
        <ele>2307.78</ele>
        <time>2020-07-25T15:52:22Z</time>
      </trkpt>
      <trkpt lat="44.93183" lon="6.41034">
        <ele>2307.78</ele>
        <time>2020-07-25T15:52:26Z</time>
      </trkpt>
      <trkpt lat="44.93148" lon="6.41057">
        <ele>2303.94</ele>
        <time>2020-07-25T15:53:11Z</time>
      </trkpt>
      <trkpt lat="44.93139" lon="6.41061">
        <ele>2300.57</ele>
        <time>2020-07-25T15:53:25Z</time>
      </trkpt>
      <trkpt lat="44.9313" lon="6.41063">
        <ele>2291.44</ele>
        <time>2020-07-25T15:53:58Z</time>
      </trkpt>
      <trkpt lat="44.93047" lon="6.40978">
        <ele>2300.57</ele>
        <time>2020-07-25T15:56:21Z</time>
      </trkpt>
      <trkpt lat="44.9303" lon="6.40977">
        <ele>2303.46</ele>
        <time>2020-07-25T15:56:44Z</time>
      </trkpt>
      <trkpt lat="44.93009" lon="6.40971">
        <ele>2300.09</ele>
        <time>2020-07-25T15:57:05Z</time>
      </trkpt>
      <trkpt lat="44.92969" lon="6.40954">
        <ele>2303.94</ele>
        <time>2020-07-25T15:57:54Z</time>
      </trkpt>
      <trkpt lat="44.92945" lon="6.40944">
        <ele>2306.82</ele>
        <time>2020-07-25T15:58:20Z</time>
      </trkpt>
      <trkpt lat="44.92922" lon="6.4096">
        <ele>2302.49</ele>
        <time>2020-07-25T15:58:43Z</time>
      </trkpt>
      <trkpt lat="44.92904" lon="6.40967">
        <ele>2296.73</ele>
        <time>2020-07-25T15:59:03Z</time>
      </trkpt>
      <trkpt lat="44.92891" lon="6.40976">
        <ele>2293.36</ele>
        <time>2020-07-25T15:59:17Z</time>
      </trkpt>
      <trkpt lat="44.92876" lon="6.40976">
        <ele>2290.48</ele>
        <time>2020-07-25T15:59:33Z</time>
      </trkpt>
      <trkpt lat="44.92777" lon="6.40962">
        <ele>2283.27</ele>
        <time>2020-07-25T16:01:03Z</time>
      </trkpt>
      <trkpt lat="44.92761" lon="6.40969">
        <ele>2277.02</ele>
        <time>2020-07-25T16:01:24Z</time>
      </trkpt>
      <trkpt lat="44.92752" lon="6.40968">
        <ele>2273.66</ele>
        <time>2020-07-25T16:01:36Z</time>
      </trkpt>
      <trkpt lat="44.92732" lon="6.4097">
        <ele>2268.85</ele>
        <time>2020-07-25T16:01:58Z</time>
      </trkpt>
      <trkpt lat="44.92705" lon="6.40955">
        <ele>2268.85</ele>
        <time>2020-07-25T16:02:22Z</time>
      </trkpt>
      <trkpt lat="44.92687" lon="6.40942">
        <ele>2270.77</ele>
        <time>2020-07-25T16:02:43Z</time>
      </trkpt>
      <trkpt lat="44.92677" lon="6.40912">
        <ele>2266.93</ele>
        <time>2020-07-25T16:03:06Z</time>
      </trkpt>
      <trkpt lat="44.92671" lon="6.4092">
        <ele>2261.16</ele>
        <time>2020-07-25T16:03:37Z</time>
      </trkpt>
      <trkpt lat="44.92671" lon="6.40919">
        <ele>2261.16</ele>
        <time>2020-07-25T16:03:38Z</time>
      </trkpt>
      <trkpt lat="44.92666" lon="6.40904">
        <ele>2257.79</ele>
        <time>2020-07-25T16:03:48Z</time>
      </trkpt>
      <trkpt lat="44.92658" lon="6.40891">
        <ele>2252.51</ele>
        <time>2020-07-25T16:04:16Z</time>
      </trkpt>
      <trkpt lat="44.92655" lon="6.40886">
        <ele>2249.14</ele>
        <time>2020-07-25T16:04:25Z</time>
      </trkpt>
      <trkpt lat="44.9265" lon="6.40886">
        <ele>2245.78</ele>
        <time>2020-07-25T16:04:37Z</time>
      </trkpt>
      <trkpt lat="44.92646" lon="6.40889">
        <ele>2242.41</ele>
        <time>2020-07-25T16:04:51Z</time>
      </trkpt>
      <trkpt lat="44.92636" lon="6.40884">
        <ele>2237.61</ele>
        <time>2020-07-25T16:05:13Z</time>
      </trkpt>
      <trkpt lat="44.92637" lon="6.40875">
        <ele>2233.76</ele>
        <time>2020-07-25T16:05:24Z</time>
      </trkpt>
      <trkpt lat="44.92633" lon="6.40869">
        <ele>2227.99</ele>
        <time>2020-07-25T16:05:46Z</time>
      </trkpt>
      <trkpt lat="44.92626" lon="6.40869">
        <ele>2223.67</ele>
        <time>2020-07-25T16:06:02Z</time>
      </trkpt>
      <trkpt lat="44.9262" lon="6.40855">
        <ele>2220.3</ele>
        <time>2020-07-25T16:06:13Z</time>
      </trkpt>
      <trkpt lat="44.92605" lon="6.40826">
        <ele>2215.98</ele>
        <time>2020-07-25T16:06:40Z</time>
      </trkpt>
      <trkpt lat="44.92605" lon="6.40827">
        <ele>2215.98</ele>
        <time>2020-07-25T16:06:41Z</time>
      </trkpt>
      <trkpt lat="44.92611" lon="6.40843">
        <ele>2212.61</ele>
        <time>2020-07-25T16:06:52Z</time>
      </trkpt>
      <trkpt lat="44.92611" lon="6.40859">
        <ele>2208.77</ele>
        <time>2020-07-25T16:07:09Z</time>
      </trkpt>
      <trkpt lat="44.92617" lon="6.40888">
        <ele>2205.88</ele>
        <time>2020-07-25T16:07:25Z</time>
      </trkpt>
      <trkpt lat="44.92606" lon="6.40906">
        <ele>2206.36</ele>
        <time>2020-07-25T16:07:38Z</time>
      </trkpt>
      <trkpt lat="44.92601" lon="6.40938">
        <ele>2201.08</ele>
        <time>2020-07-25T16:08:10Z</time>
      </trkpt>
      <trkpt lat="44.926" lon="6.4094">
        <ele>2201.08</ele>
        <time>2020-07-25T16:08:11Z</time>
      </trkpt>
      <trkpt lat="44.92594" lon="6.40969">
        <ele>2197.71</ele>
        <time>2020-07-25T16:08:30Z</time>
      </trkpt>
      <trkpt lat="44.92581" lon="6.41003">
        <ele>2192.42</ele>
        <time>2020-07-25T16:08:55Z</time>
      </trkpt>
      <trkpt lat="44.92575" lon="6.4104">
        <ele>2185.69</ele>
        <time>2020-07-25T16:09:28Z</time>
      </trkpt>
      <trkpt lat="44.92555" lon="6.41011">
        <ele>2180.41</ele>
        <time>2020-07-25T16:09:50Z</time>
      </trkpt>
      <trkpt lat="44.92558" lon="6.40975">
        <ele>2174.64</ele>
        <time>2020-07-25T16:10:11Z</time>
      </trkpt>
      <trkpt lat="44.92551" lon="6.40977">
        <ele>2173.2</ele>
        <time>2020-07-25T16:10:19Z</time>
      </trkpt>
      <trkpt lat="44.92537" lon="6.40999">
        <ele>2168.87</ele>
        <time>2020-07-25T16:10:36Z</time>
      </trkpt>
      <trkpt lat="44.92527" lon="6.41029">
        <ele>2163.1</ele>
        <time>2020-07-25T16:10:55Z</time>
      </trkpt>
      <trkpt lat="44.92527" lon="6.4103">
        <ele>2163.1</ele>
        <time>2020-07-25T16:10:56Z</time>
      </trkpt>
      <trkpt lat="44.9251" lon="6.41047">
        <ele>2158.78</ele>
        <time>2020-07-25T16:11:11Z</time>
      </trkpt>
      <trkpt lat="44.92522" lon="6.41068">
        <ele>2154.45</ele>
        <time>2020-07-25T16:11:27Z</time>
      </trkpt>
      <trkpt lat="44.92489" lon="6.41045">
        <ele>2149.65</ele>
        <time>2020-07-25T16:11:53Z</time>
      </trkpt>
      <trkpt lat="44.92493" lon="6.41018">
        <ele>2146.28</ele>
        <time>2020-07-25T16:12:10Z</time>
      </trkpt>
      <trkpt lat="44.92502" lon="6.40981">
        <ele>2140.99</ele>
        <time>2020-07-25T16:12:30Z</time>
      </trkpt>
      <trkpt lat="44.92511" lon="6.4094">
        <ele>2136.19</ele>
        <time>2020-07-25T16:12:55Z</time>
      </trkpt>
      <trkpt lat="44.92503" lon="6.40905">
        <ele>2130.9</ele>
        <time>2020-07-25T16:13:17Z</time>
      </trkpt>
      <trkpt lat="44.92503" lon="6.40903">
        <ele>2130.9</ele>
        <time>2020-07-25T16:13:18Z</time>
      </trkpt>
      <trkpt lat="44.92501" lon="6.40895">
        <ele>2129.94</ele>
        <time>2020-07-25T16:13:36Z</time>
      </trkpt>
      <trkpt lat="44.92487" lon="6.40879">
        <ele>2126.09</ele>
        <time>2020-07-25T16:13:51Z</time>
      </trkpt>
      <trkpt lat="44.92479" lon="6.4085">
        <ele>2121.29</ele>
        <time>2020-07-25T16:14:11Z</time>
      </trkpt>
      <trkpt lat="44.92469" lon="6.40812">
        <ele>2116</ele>
        <time>2020-07-25T16:14:37Z</time>
      </trkpt>
      <trkpt lat="44.92449" lon="6.40797">
        <ele>2111.19</ele>
        <time>2020-07-25T16:14:54Z</time>
      </trkpt>
      <trkpt lat="44.92437" lon="6.40773">
        <ele>2107.35</ele>
        <time>2020-07-25T16:15:13Z</time>
      </trkpt>
      <trkpt lat="44.92436" lon="6.40748">
        <ele>2103.98</ele>
        <time>2020-07-25T16:15:28Z</time>
      </trkpt>
      <trkpt lat="44.92432" lon="6.40713">
        <ele>2097.73</ele>
        <time>2020-07-25T16:15:52Z</time>
      </trkpt>
      <trkpt lat="44.92432" lon="6.40714">
        <ele>2097.73</ele>
        <time>2020-07-25T16:15:53Z</time>
      </trkpt>
      <trkpt lat="44.92428" lon="6.40739">
        <ele>2092.93</ele>
        <time>2020-07-25T16:16:12Z</time>
      </trkpt>
      <trkpt lat="44.92421" lon="6.40713">
        <ele>2088.12</ele>
        <time>2020-07-25T16:16:32Z</time>
      </trkpt>
      <trkpt lat="44.92419" lon="6.40735">
        <ele>2084.76</ele>
        <time>2020-07-25T16:16:47Z</time>
      </trkpt>
      <trkpt lat="44.92414" lon="6.40765">
        <ele>2081.39</ele>
        <time>2020-07-25T16:17:03Z</time>
      </trkpt>
      <trkpt lat="44.92409" lon="6.40795">
        <ele>2077.07</ele>
        <time>2020-07-25T16:17:21Z</time>
      </trkpt>
      <trkpt lat="44.92407" lon="6.40811">
        <ele>2074.66</ele>
        <time>2020-07-25T16:17:31Z</time>
      </trkpt>
      <trkpt lat="44.92397" lon="6.40786">
        <ele>2070.82</ele>
        <time>2020-07-25T16:17:47Z</time>
      </trkpt>
      <trkpt lat="44.92392" lon="6.40754">
        <ele>2067.45</ele>
        <time>2020-07-25T16:18:04Z</time>
      </trkpt>
      <trkpt lat="44.9239" lon="6.40732">
        <ele>2064.09</ele>
        <time>2020-07-25T16:18:18Z</time>
      </trkpt>
      <trkpt lat="44.92367" lon="6.40697">
        <ele>2058.8</ele>
        <time>2020-07-25T16:18:44Z</time>
      </trkpt>
      <trkpt lat="44.92355" lon="6.40699">
        <ele>2055.92</ele>
        <time>2020-07-25T16:19:01Z</time>
      </trkpt>
      <trkpt lat="44.92352" lon="6.40736">
        <ele>2050.63</ele>
        <time>2020-07-25T16:19:24Z</time>
      </trkpt>
      <trkpt lat="44.92356" lon="6.40751">
        <ele>2046.78</ele>
        <time>2020-07-25T16:19:37Z</time>
      </trkpt>
      <trkpt lat="44.92353" lon="6.40787">
        <ele>2042.46</ele>
        <time>2020-07-25T16:19:55Z</time>
      </trkpt>
      <trkpt lat="44.92354" lon="6.40812">
        <ele>2037.65</ele>
        <time>2020-07-25T16:20:09Z</time>
      </trkpt>
      <trkpt lat="44.92353" lon="6.40816">
        <ele>2037.65</ele>
        <time>2020-07-25T16:20:11Z</time>
      </trkpt>
      <trkpt lat="44.92355" lon="6.40838">
        <ele>2034.29</ele>
        <time>2020-07-25T16:20:23Z</time>
      </trkpt>
      <trkpt lat="44.92356" lon="6.40841">
        <ele>2034.29</ele>
        <time>2020-07-25T16:20:25Z</time>
      </trkpt>
      <trkpt lat="44.92334" lon="6.40833">
        <ele>2026.6</ele>
        <time>2020-07-25T16:20:54Z</time>
      </trkpt>
      <trkpt lat="44.92309" lon="6.40795">
        <ele>2020.35</ele>
        <time>2020-07-25T16:21:21Z</time>
      </trkpt>
      <trkpt lat="44.92294" lon="6.40749">
        <ele>2014.1</ele>
        <time>2020-07-25T16:21:52Z</time>
      </trkpt>
      <trkpt lat="44.92293" lon="6.40747">
        <ele>2014.1</ele>
        <time>2020-07-25T16:21:53Z</time>
      </trkpt>
      <trkpt lat="44.9229" lon="6.4074">
        <ele>2013.62</ele>
        <time>2020-07-25T16:21:57Z</time>
      </trkpt>
      <trkpt lat="44.92263" lon="6.4073">
        <ele>2008.33</ele>
        <time>2020-07-25T16:22:24Z</time>
      </trkpt>
      <trkpt lat="44.92256" lon="6.40712">
        <ele>2004.49</ele>
        <time>2020-07-25T16:22:36Z</time>
      </trkpt>
      <trkpt lat="44.92243" lon="6.40692">
        <ele>2001.12</ele>
        <time>2020-07-25T16:22:51Z</time>
      </trkpt>
      <trkpt lat="44.9224" lon="6.4069">
        <ele>2001.12</ele>
        <time>2020-07-25T16:22:53Z</time>
      </trkpt>
      <trkpt lat="44.92241" lon="6.40714">
        <ele>1996.32</ele>
        <time>2020-07-25T16:23:12Z</time>
      </trkpt>
      <trkpt lat="44.92232" lon="6.40718">
        <ele>1992.47</ele>
        <time>2020-07-25T16:23:24Z</time>
      </trkpt>
      <trkpt lat="44.92232" lon="6.4072">
        <ele>1992.47</ele>
        <time>2020-07-25T16:23:26Z</time>
      </trkpt>
      <trkpt lat="44.92229" lon="6.40731">
        <ele>1988.62</ele>
        <time>2020-07-25T16:23:35Z</time>
      </trkpt>
      <trkpt lat="44.92228" lon="6.40733">
        <ele>1988.62</ele>
        <time>2020-07-25T16:23:37Z</time>
      </trkpt>
      <trkpt lat="44.92229" lon="6.40766">
        <ele>1983.34</ele>
        <time>2020-07-25T16:23:56Z</time>
      </trkpt>
      <trkpt lat="44.92233" lon="6.40794">
        <ele>1978.53</ele>
        <time>2020-07-25T16:24:16Z</time>
      </trkpt>
      <trkpt lat="44.92226" lon="6.40809">
        <ele>1975.17</ele>
        <time>2020-07-25T16:24:27Z</time>
      </trkpt>
      <trkpt lat="44.92227" lon="6.40816">
        <ele>1974.2</ele>
        <time>2020-07-25T16:24:33Z</time>
      </trkpt>
      <trkpt lat="44.92237" lon="6.40826">
        <ele>1970.36</ele>
        <time>2020-07-25T16:24:45Z</time>
      </trkpt>
      <trkpt lat="44.92237" lon="6.40827">
        <ele>1970.36</ele>
        <time>2020-07-25T16:24:46Z</time>
      </trkpt>
      <trkpt lat="44.9225" lon="6.40862">
        <ele>1965.07</ele>
        <time>2020-07-25T16:25:16Z</time>
      </trkpt>
      <trkpt lat="44.92253" lon="6.40873">
        <ele>1962.67</ele>
        <time>2020-07-25T16:25:23Z</time>
      </trkpt>
      <trkpt lat="44.92249" lon="6.409">
        <ele>1958.82</ele>
        <time>2020-07-25T16:25:39Z</time>
      </trkpt>
      <trkpt lat="44.92243" lon="6.40916">
        <ele>1955.46</ele>
        <time>2020-07-25T16:25:49Z</time>
      </trkpt>
      <trkpt lat="44.92242" lon="6.40918">
        <ele>1955.94</ele>
        <time>2020-07-25T16:25:50Z</time>
      </trkpt>
      <trkpt lat="44.92233" lon="6.40948">
        <ele>1950.65</ele>
        <time>2020-07-25T16:26:09Z</time>
      </trkpt>
      <trkpt lat="44.92242" lon="6.40981">
        <ele>1947.29</ele>
        <time>2020-07-25T16:26:28Z</time>
      </trkpt>
      <trkpt lat="44.92243" lon="6.40987">
        <ele>1947.29</ele>
        <time>2020-07-25T16:26:31Z</time>
      </trkpt>
      <trkpt lat="44.92234" lon="6.41033">
        <ele>1942.48</ele>
        <time>2020-07-25T16:26:54Z</time>
      </trkpt>
      <trkpt lat="44.92166" lon="6.41087">
        <ele>1935.27</ele>
        <time>2020-07-25T16:27:50Z</time>
      </trkpt>
      <trkpt lat="44.92126" lon="6.41122">
        <ele>1930.95</ele>
        <time>2020-07-25T16:28:40Z</time>
      </trkpt>
      <trkpt lat="44.9208" lon="6.41196">
        <ele>1926.62</ele>
        <time>2020-07-25T16:29:46Z</time>
      </trkpt>
      <trkpt lat="44.9204" lon="6.41261">
        <ele>1922.77</ele>
        <time>2020-07-25T16:30:41Z</time>
      </trkpt>
      <trkpt lat="44.92012" lon="6.41312">
        <ele>1918.93</ele>
        <time>2020-07-25T16:31:23Z</time>
      </trkpt>
      <trkpt lat="44.91987" lon="6.41344">
        <ele>1915.56</ele>
        <time>2020-07-25T16:31:54Z</time>
      </trkpt>
      <trkpt lat="44.91949" lon="6.41397">
        <ele>1912.2</ele>
        <time>2020-07-25T16:32:43Z</time>
      </trkpt>
      <trkpt lat="44.91902" lon="6.41461">
        <ele>1907.39</ele>
        <time>2020-07-25T16:33:42Z</time>
      </trkpt>
      <trkpt lat="44.91841" lon="6.41545">
        <ele>1901.63</ele>
        <time>2020-07-25T16:34:56Z</time>
      </trkpt>
      <trkpt lat="44.91781" lon="6.41588">
        <ele>1898.26</ele>
        <time>2020-07-25T16:35:56Z</time>
      </trkpt>
      <trkpt lat="44.91691" lon="6.41545">
        <ele>1891.53</ele>
        <time>2020-07-25T16:38:29Z</time>
      </trkpt>
    </trkseg>
  </trk>
</gpx>